<?xml version="1.0" encoding="UTF-8" standalone="no" ?>
<gpx xmlns="http://www.topografix.com/GPX/1/1" xmlns:xsi="http://www.w3.org/2001/XMLSchema-instance" xsi:schemaLocation="http://www.topografix.com/GPX/1/1 http://www.topografix.com/GPX/1/1/gpx.xsd" version="1.1" creator="VisuGPX - https://www.visugpx.com">
  <metadata>
    <name>Ste Croix en Jarez</name>
    <desc><![CDATA[Pilat
Ste Croix en Jarez - Grange Rouet et retour
Resto possible à Grange Rouet]]></desc>
  </metadata>
  <trk>
    <name><![CDATA[14-NOV-17 16:15:49]]></name>
    <trkseg>
      <trkpt lat="45.4785" lon="4.64638">
        <ele>434.65</ele>
        <time>2017-11-14T07:52:51Z</time>
      </trkpt>
      <trkpt lat="45.4785" lon="4.6464">
        <ele>433.69</ele>
        <time>2017-11-14T07:53:11Z</time>
      </trkpt>
      <trkpt lat="45.47851" lon="4.64635">
        <ele>433.69</ele>
        <time>2017-11-14T07:53:31Z</time>
      </trkpt>
      <trkpt lat="45.47853" lon="4.64638">
        <ele>434.65</ele>
        <time>2017-11-14T07:53:51Z</time>
      </trkpt>
      <trkpt lat="45.47853" lon="4.64639">
        <ele>434.17</ele>
        <time>2017-11-14T07:54:11Z</time>
      </trkpt>
      <trkpt lat="45.47854" lon="4.64637">
        <ele>434.65</ele>
        <time>2017-11-14T07:54:31Z</time>
      </trkpt>
      <trkpt lat="45.47854" lon="4.6464">
        <ele>434.17</ele>
        <time>2017-11-14T07:54:51Z</time>
      </trkpt>
      <trkpt lat="45.47854" lon="4.64638">
        <ele>434.17</ele>
        <time>2017-11-14T07:55:11Z</time>
      </trkpt>
      <trkpt lat="45.47854" lon="4.64638">
        <ele>434.17</ele>
        <time>2017-11-14T07:55:31Z</time>
      </trkpt>
      <trkpt lat="45.47854" lon="4.64636">
        <ele>433.21</ele>
        <time>2017-11-14T07:55:51Z</time>
      </trkpt>
      <trkpt lat="45.47853" lon="4.64637">
        <ele>434.17</ele>
        <time>2017-11-14T07:56:11Z</time>
      </trkpt>
      <trkpt lat="45.47854" lon="4.64637">
        <ele>433.21</ele>
        <time>2017-11-14T07:56:31Z</time>
      </trkpt>
      <trkpt lat="45.47855" lon="4.64638">
        <ele>434.17</ele>
        <time>2017-11-14T07:56:51Z</time>
      </trkpt>
      <trkpt lat="45.47857" lon="4.64629">
        <ele>433.69</ele>
        <time>2017-11-14T07:57:11Z</time>
      </trkpt>
      <trkpt lat="45.47837" lon="4.64638">
        <ele>432.25</ele>
        <time>2017-11-14T07:57:31Z</time>
      </trkpt>
      <trkpt lat="45.4782" lon="4.64658">
        <ele>428.4</ele>
        <time>2017-11-14T07:57:51Z</time>
      </trkpt>
      <trkpt lat="45.47799" lon="4.64645">
        <ele>430.33</ele>
        <time>2017-11-14T07:58:11Z</time>
      </trkpt>
      <trkpt lat="45.47779" lon="4.64635">
        <ele>432.73</ele>
        <time>2017-11-14T07:58:31Z</time>
      </trkpt>
      <trkpt lat="45.47758" lon="4.64638">
        <ele>434.65</ele>
        <time>2017-11-14T07:58:51Z</time>
      </trkpt>
      <trkpt lat="45.47741" lon="4.64633">
        <ele>438.5</ele>
        <time>2017-11-14T07:59:11Z</time>
      </trkpt>
      <trkpt lat="45.47729" lon="4.64625">
        <ele>441.38</ele>
        <time>2017-11-14T07:59:31Z</time>
      </trkpt>
      <trkpt lat="45.47739" lon="4.64613">
        <ele>444.75</ele>
        <time>2017-11-14T07:59:51Z</time>
      </trkpt>
      <trkpt lat="45.47755" lon="4.64598">
        <ele>447.63</ele>
        <time>2017-11-14T08:00:11Z</time>
      </trkpt>
      <trkpt lat="45.47763" lon="4.64583">
        <ele>450.52</ele>
        <time>2017-11-14T08:00:31Z</time>
      </trkpt>
      <trkpt lat="45.47758" lon="4.64571">
        <ele>453.4</ele>
        <time>2017-11-14T08:00:51Z</time>
      </trkpt>
      <trkpt lat="45.47748" lon="4.64568">
        <ele>456.76</ele>
        <time>2017-11-14T08:01:11Z</time>
      </trkpt>
      <trkpt lat="45.47734" lon="4.64558">
        <ele>459.65</ele>
        <time>2017-11-14T08:01:31Z</time>
      </trkpt>
      <trkpt lat="45.47723" lon="4.64547">
        <ele>463.01</ele>
        <time>2017-11-14T08:01:51Z</time>
      </trkpt>
      <trkpt lat="45.47711" lon="4.64535">
        <ele>465.9</ele>
        <time>2017-11-14T08:02:11Z</time>
      </trkpt>
      <trkpt lat="45.477" lon="4.64525">
        <ele>468.78</ele>
        <time>2017-11-14T08:02:31Z</time>
      </trkpt>
      <trkpt lat="45.47689" lon="4.64514">
        <ele>471.18</ele>
        <time>2017-11-14T08:02:51Z</time>
      </trkpt>
      <trkpt lat="45.47678" lon="4.64504">
        <ele>474.07</ele>
        <time>2017-11-14T08:03:11Z</time>
      </trkpt>
      <trkpt lat="45.47669" lon="4.64489">
        <ele>476.47</ele>
        <time>2017-11-14T08:03:31Z</time>
      </trkpt>
      <trkpt lat="45.47662" lon="4.64473">
        <ele>479.84</ele>
        <time>2017-11-14T08:03:51Z</time>
      </trkpt>
      <trkpt lat="45.47658" lon="4.64464">
        <ele>482.72</ele>
        <time>2017-11-14T08:04:11Z</time>
      </trkpt>
      <trkpt lat="45.47656" lon="4.64461">
        <ele>482.24</ele>
        <time>2017-11-14T08:04:31Z</time>
      </trkpt>
      <trkpt lat="45.4765" lon="4.64445">
        <ele>484.16</ele>
        <time>2017-11-14T08:04:51Z</time>
      </trkpt>
      <trkpt lat="45.47642" lon="4.64423">
        <ele>487.53</ele>
        <time>2017-11-14T08:05:11Z</time>
      </trkpt>
      <trkpt lat="45.47636" lon="4.64401">
        <ele>489.45</ele>
        <time>2017-11-14T08:05:31Z</time>
      </trkpt>
      <trkpt lat="45.47635" lon="4.64376">
        <ele>490.89</ele>
        <time>2017-11-14T08:05:51Z</time>
      </trkpt>
      <trkpt lat="45.47633" lon="4.64346">
        <ele>493.29</ele>
        <time>2017-11-14T08:06:11Z</time>
      </trkpt>
      <trkpt lat="45.47625" lon="4.64317">
        <ele>495.22</ele>
        <time>2017-11-14T08:06:31Z</time>
      </trkpt>
      <trkpt lat="45.47618" lon="4.64291">
        <ele>497.14</ele>
        <time>2017-11-14T08:06:51Z</time>
      </trkpt>
      <trkpt lat="45.4761" lon="4.64264">
        <ele>498.1</ele>
        <time>2017-11-14T08:07:11Z</time>
      </trkpt>
      <trkpt lat="45.47602" lon="4.64236">
        <ele>500.02</ele>
        <time>2017-11-14T08:07:31Z</time>
      </trkpt>
      <trkpt lat="45.47594" lon="4.64207">
        <ele>502.91</ele>
        <time>2017-11-14T08:07:51Z</time>
      </trkpt>
      <trkpt lat="45.47587" lon="4.6418">
        <ele>504.83</ele>
        <time>2017-11-14T08:08:11Z</time>
      </trkpt>
      <trkpt lat="45.47578" lon="4.64151">
        <ele>506.27</ele>
        <time>2017-11-14T08:08:31Z</time>
      </trkpt>
      <trkpt lat="45.47571" lon="4.64123">
        <ele>508.67</ele>
        <time>2017-11-14T08:08:51Z</time>
      </trkpt>
      <trkpt lat="45.47562" lon="4.64095">
        <ele>510.12</ele>
        <time>2017-11-14T08:09:11Z</time>
      </trkpt>
      <trkpt lat="45.47554" lon="4.64065">
        <ele>512.04</ele>
        <time>2017-11-14T08:09:31Z</time>
      </trkpt>
      <trkpt lat="45.47547" lon="4.64035">
        <ele>513</ele>
        <time>2017-11-14T08:09:51Z</time>
      </trkpt>
      <trkpt lat="45.47544" lon="4.64004">
        <ele>515.88</ele>
        <time>2017-11-14T08:10:11Z</time>
      </trkpt>
      <trkpt lat="45.4754" lon="4.63974">
        <ele>516.85</ele>
        <time>2017-11-14T08:10:31Z</time>
      </trkpt>
      <trkpt lat="45.47537" lon="4.63943">
        <ele>519.25</ele>
        <time>2017-11-14T08:10:51Z</time>
      </trkpt>
      <trkpt lat="45.47529" lon="4.63915">
        <ele>521.17</ele>
        <time>2017-11-14T08:11:11Z</time>
      </trkpt>
      <trkpt lat="45.47516" lon="4.63894">
        <ele>522.61</ele>
        <time>2017-11-14T08:11:31Z</time>
      </trkpt>
      <trkpt lat="45.47497" lon="4.63883">
        <ele>524.54</ele>
        <time>2017-11-14T08:11:51Z</time>
      </trkpt>
      <trkpt lat="45.47477" lon="4.63873">
        <ele>525.98</ele>
        <time>2017-11-14T08:12:11Z</time>
      </trkpt>
      <trkpt lat="45.47453" lon="4.63865">
        <ele>526.94</ele>
        <time>2017-11-14T08:12:31Z</time>
      </trkpt>
      <trkpt lat="45.47437" lon="4.63854">
        <ele>525.98</ele>
        <time>2017-11-14T08:12:51Z</time>
      </trkpt>
      <trkpt lat="45.4744" lon="4.63829">
        <ele>522.13</ele>
        <time>2017-11-14T08:13:11Z</time>
      </trkpt>
      <trkpt lat="45.47433" lon="4.63803">
        <ele>517.81</ele>
        <time>2017-11-14T08:13:31Z</time>
      </trkpt>
      <trkpt lat="45.47426" lon="4.63777">
        <ele>514.44</ele>
        <time>2017-11-14T08:13:51Z</time>
      </trkpt>
      <trkpt lat="45.47414" lon="4.63755">
        <ele>510.12</ele>
        <time>2017-11-14T08:14:11Z</time>
      </trkpt>
      <trkpt lat="45.47406" lon="4.63734">
        <ele>505.31</ele>
        <time>2017-11-14T08:14:31Z</time>
      </trkpt>
      <trkpt lat="45.47401" lon="4.63716">
        <ele>502.43</ele>
        <time>2017-11-14T08:14:51Z</time>
      </trkpt>
      <trkpt lat="45.47388" lon="4.63696">
        <ele>498.58</ele>
        <time>2017-11-14T08:15:11Z</time>
      </trkpt>
      <trkpt lat="45.47377" lon="4.63673">
        <ele>495.7</ele>
        <time>2017-11-14T08:15:31Z</time>
      </trkpt>
      <trkpt lat="45.4737" lon="4.63651">
        <ele>490.89</ele>
        <time>2017-11-14T08:15:51Z</time>
      </trkpt>
      <trkpt lat="45.47369" lon="4.63624">
        <ele>486.08</ele>
        <time>2017-11-14T08:16:11Z</time>
      </trkpt>
      <trkpt lat="45.4737" lon="4.63595">
        <ele>483.2</ele>
        <time>2017-11-14T08:16:31Z</time>
      </trkpt>
      <trkpt lat="45.47362" lon="4.63572">
        <ele>481.28</ele>
        <time>2017-11-14T08:16:51Z</time>
      </trkpt>
      <trkpt lat="45.47343" lon="4.6356">
        <ele>481.76</ele>
        <time>2017-11-14T08:17:11Z</time>
      </trkpt>
      <trkpt lat="45.47323" lon="4.63546">
        <ele>481.76</ele>
        <time>2017-11-14T08:17:31Z</time>
      </trkpt>
      <trkpt lat="45.47303" lon="4.63533">
        <ele>482.24</ele>
        <time>2017-11-14T08:17:51Z</time>
      </trkpt>
      <trkpt lat="45.47282" lon="4.63521">
        <ele>482.24</ele>
        <time>2017-11-14T08:18:11Z</time>
      </trkpt>
      <trkpt lat="45.47262" lon="4.63508">
        <ele>481.76</ele>
        <time>2017-11-14T08:18:31Z</time>
      </trkpt>
      <trkpt lat="45.47241" lon="4.63495">
        <ele>482.24</ele>
        <time>2017-11-14T08:18:51Z</time>
      </trkpt>
      <trkpt lat="45.47219" lon="4.63481">
        <ele>482.72</ele>
        <time>2017-11-14T08:19:11Z</time>
      </trkpt>
      <trkpt lat="45.47198" lon="4.63467">
        <ele>482.24</ele>
        <time>2017-11-14T08:19:31Z</time>
      </trkpt>
      <trkpt lat="45.47176" lon="4.63453">
        <ele>482.24</ele>
        <time>2017-11-14T08:19:51Z</time>
      </trkpt>
      <trkpt lat="45.47154" lon="4.63438">
        <ele>482.72</ele>
        <time>2017-11-14T08:20:11Z</time>
      </trkpt>
      <trkpt lat="45.47133" lon="4.63426">
        <ele>482.72</ele>
        <time>2017-11-14T08:20:31Z</time>
      </trkpt>
      <trkpt lat="45.47112" lon="4.63417">
        <ele>483.2</ele>
        <time>2017-11-14T08:20:51Z</time>
      </trkpt>
      <trkpt lat="45.47096" lon="4.63402">
        <ele>482.72</ele>
        <time>2017-11-14T08:21:11Z</time>
      </trkpt>
      <trkpt lat="45.47075" lon="4.63383">
        <ele>479.84</ele>
        <time>2017-11-14T08:21:31Z</time>
      </trkpt>
      <trkpt lat="45.47059" lon="4.63369">
        <ele>477.91</ele>
        <time>2017-11-14T08:21:51Z</time>
      </trkpt>
      <trkpt lat="45.47052" lon="4.63338">
        <ele>478.39</ele>
        <time>2017-11-14T08:22:11Z</time>
      </trkpt>
      <trkpt lat="45.47036" lon="4.63309">
        <ele>477.43</ele>
        <time>2017-11-14T08:22:31Z</time>
      </trkpt>
      <trkpt lat="45.47022" lon="4.63285">
        <ele>478.87</ele>
        <time>2017-11-14T08:22:51Z</time>
      </trkpt>
      <trkpt lat="45.47011" lon="4.63258">
        <ele>477.43</ele>
        <time>2017-11-14T08:23:11Z</time>
      </trkpt>
      <trkpt lat="45.46997" lon="4.63233">
        <ele>475.03</ele>
        <time>2017-11-14T08:23:31Z</time>
      </trkpt>
      <trkpt lat="45.46983" lon="4.6321">
        <ele>473.59</ele>
        <time>2017-11-14T08:23:51Z</time>
      </trkpt>
      <trkpt lat="45.46969" lon="4.6319">
        <ele>471.18</ele>
        <time>2017-11-14T08:24:11Z</time>
      </trkpt>
      <trkpt lat="45.46954" lon="4.63169">
        <ele>468.78</ele>
        <time>2017-11-14T08:24:31Z</time>
      </trkpt>
      <trkpt lat="45.4694" lon="4.63147">
        <ele>467.34</ele>
        <time>2017-11-14T08:24:51Z</time>
      </trkpt>
      <trkpt lat="45.46924" lon="4.63126">
        <ele>466.38</ele>
        <time>2017-11-14T08:25:11Z</time>
      </trkpt>
      <trkpt lat="45.46908" lon="4.63106">
        <ele>465.9</ele>
        <time>2017-11-14T08:25:31Z</time>
      </trkpt>
      <trkpt lat="45.46892" lon="4.63084">
        <ele>465.9</ele>
        <time>2017-11-14T08:25:51Z</time>
      </trkpt>
      <trkpt lat="45.46875" lon="4.63071">
        <ele>465.9</ele>
        <time>2017-11-14T08:26:11Z</time>
      </trkpt>
      <trkpt lat="45.46872" lon="4.6306">
        <ele>466.38</ele>
        <time>2017-11-14T08:26:31Z</time>
      </trkpt>
      <trkpt lat="45.46873" lon="4.63071">
        <ele>465.9</ele>
        <time>2017-11-14T08:26:51Z</time>
      </trkpt>
      <trkpt lat="45.46874" lon="4.63074">
        <ele>465.9</ele>
        <time>2017-11-14T08:27:11Z</time>
      </trkpt>
      <trkpt lat="45.46873" lon="4.63075">
        <ele>465.42</ele>
        <time>2017-11-14T08:27:31Z</time>
      </trkpt>
      <trkpt lat="45.46873" lon="4.63077">
        <ele>465.42</ele>
        <time>2017-11-14T08:27:51Z</time>
      </trkpt>
      <trkpt lat="45.46872" lon="4.63078">
        <ele>464.93</ele>
        <time>2017-11-14T08:28:11Z</time>
      </trkpt>
      <trkpt lat="45.46872" lon="4.63067">
        <ele>464.45</ele>
        <time>2017-11-14T08:28:31Z</time>
      </trkpt>
      <trkpt lat="45.4687" lon="4.6306">
        <ele>464.93</ele>
        <time>2017-11-14T08:28:51Z</time>
      </trkpt>
      <trkpt lat="45.4687" lon="4.63059">
        <ele>463.97</ele>
        <time>2017-11-14T08:29:11Z</time>
      </trkpt>
      <trkpt lat="45.46866" lon="4.63061">
        <ele>464.93</ele>
        <time>2017-11-14T08:29:31Z</time>
      </trkpt>
      <trkpt lat="45.46868" lon="4.63059">
        <ele>464.93</ele>
        <time>2017-11-14T08:29:51Z</time>
      </trkpt>
      <trkpt lat="45.4688" lon="4.63055">
        <ele>467.34</ele>
        <time>2017-11-14T08:30:11Z</time>
      </trkpt>
      <trkpt lat="45.46897" lon="4.63058">
        <ele>469.74</ele>
        <time>2017-11-14T08:30:31Z</time>
      </trkpt>
      <trkpt lat="45.46915" lon="4.6306">
        <ele>471.18</ele>
        <time>2017-11-14T08:30:51Z</time>
      </trkpt>
      <trkpt lat="45.46931" lon="4.63063">
        <ele>473.59</ele>
        <time>2017-11-14T08:31:11Z</time>
      </trkpt>
      <trkpt lat="45.46952" lon="4.63065">
        <ele>475.99</ele>
        <time>2017-11-14T08:31:31Z</time>
      </trkpt>
      <trkpt lat="45.46968" lon="4.63067">
        <ele>477.43</ele>
        <time>2017-11-14T08:31:51Z</time>
      </trkpt>
      <trkpt lat="45.46983" lon="4.63066">
        <ele>480.32</ele>
        <time>2017-11-14T08:32:11Z</time>
      </trkpt>
      <trkpt lat="45.46995" lon="4.63064">
        <ele>482.72</ele>
        <time>2017-11-14T08:32:31Z</time>
      </trkpt>
      <trkpt lat="45.47011" lon="4.6306">
        <ele>485.12</ele>
        <time>2017-11-14T08:32:51Z</time>
      </trkpt>
      <trkpt lat="45.47026" lon="4.63053">
        <ele>486.56</ele>
        <time>2017-11-14T08:33:11Z</time>
      </trkpt>
      <trkpt lat="45.47039" lon="4.63041">
        <ele>488.97</ele>
        <time>2017-11-14T08:33:31Z</time>
      </trkpt>
      <trkpt lat="45.47041" lon="4.63033">
        <ele>491.85</ele>
        <time>2017-11-14T08:33:51Z</time>
      </trkpt>
      <trkpt lat="45.47033" lon="4.6303">
        <ele>493.29</ele>
        <time>2017-11-14T08:34:11Z</time>
      </trkpt>
      <trkpt lat="45.47018" lon="4.63023">
        <ele>495.7</ele>
        <time>2017-11-14T08:34:31Z</time>
      </trkpt>
      <trkpt lat="45.47012" lon="4.63011">
        <ele>498.1</ele>
        <time>2017-11-14T08:34:51Z</time>
      </trkpt>
      <trkpt lat="45.4702" lon="4.63">
        <ele>501.46</ele>
        <time>2017-11-14T08:35:11Z</time>
      </trkpt>
      <trkpt lat="45.47028" lon="4.6299">
        <ele>504.35</ele>
        <time>2017-11-14T08:35:31Z</time>
      </trkpt>
      <trkpt lat="45.47037" lon="4.62979">
        <ele>506.75</ele>
        <time>2017-11-14T08:35:51Z</time>
      </trkpt>
      <trkpt lat="45.47047" lon="4.6297">
        <ele>509.64</ele>
        <time>2017-11-14T08:36:11Z</time>
      </trkpt>
      <trkpt lat="45.47058" lon="4.62962">
        <ele>511.56</ele>
        <time>2017-11-14T08:36:31Z</time>
      </trkpt>
      <trkpt lat="45.47071" lon="4.62954">
        <ele>513.48</ele>
        <time>2017-11-14T08:36:51Z</time>
      </trkpt>
      <trkpt lat="45.47087" lon="4.6295">
        <ele>516.37</ele>
        <time>2017-11-14T08:37:11Z</time>
      </trkpt>
      <trkpt lat="45.47103" lon="4.62948">
        <ele>519.25</ele>
        <time>2017-11-14T08:37:31Z</time>
      </trkpt>
      <trkpt lat="45.47119" lon="4.62949">
        <ele>521.65</ele>
        <time>2017-11-14T08:37:51Z</time>
      </trkpt>
      <trkpt lat="45.47134" lon="4.62949">
        <ele>524.06</ele>
        <time>2017-11-14T08:38:11Z</time>
      </trkpt>
      <trkpt lat="45.47148" lon="4.62948">
        <ele>526.94</ele>
        <time>2017-11-14T08:38:31Z</time>
      </trkpt>
      <trkpt lat="45.47163" lon="4.62947">
        <ele>529.82</ele>
        <time>2017-11-14T08:38:51Z</time>
      </trkpt>
      <trkpt lat="45.47177" lon="4.62945">
        <ele>532.23</ele>
        <time>2017-11-14T08:39:11Z</time>
      </trkpt>
      <trkpt lat="45.47193" lon="4.62942">
        <ele>534.63</ele>
        <time>2017-11-14T08:39:31Z</time>
      </trkpt>
      <trkpt lat="45.4721" lon="4.62935">
        <ele>537.03</ele>
        <time>2017-11-14T08:39:51Z</time>
      </trkpt>
      <trkpt lat="45.47227" lon="4.62928">
        <ele>538.96</ele>
        <time>2017-11-14T08:40:11Z</time>
      </trkpt>
      <trkpt lat="45.47244" lon="4.62923">
        <ele>539.92</ele>
        <time>2017-11-14T08:40:31Z</time>
      </trkpt>
      <trkpt lat="45.47245" lon="4.62924">
        <ele>539.44</ele>
        <time>2017-11-14T08:40:51Z</time>
      </trkpt>
      <trkpt lat="45.47247" lon="4.62921">
        <ele>539.92</ele>
        <time>2017-11-14T08:41:11Z</time>
      </trkpt>
      <trkpt lat="45.47248" lon="4.62923">
        <ele>539.44</ele>
        <time>2017-11-14T08:41:31Z</time>
      </trkpt>
      <trkpt lat="45.47244" lon="4.62926">
        <ele>539.92</ele>
        <time>2017-11-14T08:41:51Z</time>
      </trkpt>
      <trkpt lat="45.47243" lon="4.62926">
        <ele>539.92</ele>
        <time>2017-11-14T08:42:11Z</time>
      </trkpt>
      <trkpt lat="45.47243" lon="4.62925">
        <ele>539.44</ele>
        <time>2017-11-14T08:42:31Z</time>
      </trkpt>
      <trkpt lat="45.47249" lon="4.62922">
        <ele>539.44</ele>
        <time>2017-11-14T08:42:51Z</time>
      </trkpt>
      <trkpt lat="45.47254" lon="4.62921">
        <ele>539.92</ele>
        <time>2017-11-14T08:43:11Z</time>
      </trkpt>
      <trkpt lat="45.47267" lon="4.62908">
        <ele>541.36</ele>
        <time>2017-11-14T08:43:31Z</time>
      </trkpt>
      <trkpt lat="45.4728" lon="4.62894">
        <ele>541.36</ele>
        <time>2017-11-14T08:43:51Z</time>
      </trkpt>
      <trkpt lat="45.47283" lon="4.62869">
        <ele>543.76</ele>
        <time>2017-11-14T08:44:11Z</time>
      </trkpt>
      <trkpt lat="45.47285" lon="4.62841">
        <ele>544.24</ele>
        <time>2017-11-14T08:44:31Z</time>
      </trkpt>
      <trkpt lat="45.47286" lon="4.62814">
        <ele>543.28</ele>
        <time>2017-11-14T08:44:51Z</time>
      </trkpt>
      <trkpt lat="45.47272" lon="4.62795">
        <ele>544.72</ele>
        <time>2017-11-14T08:45:11Z</time>
      </trkpt>
      <trkpt lat="45.47258" lon="4.62777">
        <ele>547.61</ele>
        <time>2017-11-14T08:45:31Z</time>
      </trkpt>
      <trkpt lat="45.47244" lon="4.62761">
        <ele>550.01</ele>
        <time>2017-11-14T08:45:51Z</time>
      </trkpt>
      <trkpt lat="45.4723" lon="4.62745">
        <ele>552.41</ele>
        <time>2017-11-14T08:46:11Z</time>
      </trkpt>
      <trkpt lat="45.47217" lon="4.62729">
        <ele>555.3</ele>
        <time>2017-11-14T08:46:31Z</time>
      </trkpt>
      <trkpt lat="45.47198" lon="4.62729">
        <ele>557.22</ele>
        <time>2017-11-14T08:46:51Z</time>
      </trkpt>
      <trkpt lat="45.47179" lon="4.62737">
        <ele>559.62</ele>
        <time>2017-11-14T08:47:11Z</time>
      </trkpt>
      <trkpt lat="45.4716" lon="4.6274">
        <ele>560.59</ele>
        <time>2017-11-14T08:47:31Z</time>
      </trkpt>
      <trkpt lat="45.47138" lon="4.6274">
        <ele>562.51</ele>
        <time>2017-11-14T08:47:51Z</time>
      </trkpt>
      <trkpt lat="45.47116" lon="4.62739">
        <ele>564.43</ele>
        <time>2017-11-14T08:48:11Z</time>
      </trkpt>
      <trkpt lat="45.47096" lon="4.6274">
        <ele>565.39</ele>
        <time>2017-11-14T08:48:31Z</time>
      </trkpt>
      <trkpt lat="45.47076" lon="4.62744">
        <ele>567.32</ele>
        <time>2017-11-14T08:48:51Z</time>
      </trkpt>
      <trkpt lat="45.47054" lon="4.62749">
        <ele>566.83</ele>
        <time>2017-11-14T08:49:11Z</time>
      </trkpt>
      <trkpt lat="45.47032" lon="4.62754">
        <ele>566.83</ele>
        <time>2017-11-14T08:49:31Z</time>
      </trkpt>
      <trkpt lat="45.4701" lon="4.62755">
        <ele>567.8</ele>
        <time>2017-11-14T08:49:51Z</time>
      </trkpt>
      <trkpt lat="45.46988" lon="4.62753">
        <ele>569.72</ele>
        <time>2017-11-14T08:50:11Z</time>
      </trkpt>
      <trkpt lat="45.46971" lon="4.6274">
        <ele>571.16</ele>
        <time>2017-11-14T08:50:31Z</time>
      </trkpt>
      <trkpt lat="45.46975" lon="4.62719">
        <ele>574.04</ele>
        <time>2017-11-14T08:50:51Z</time>
      </trkpt>
      <trkpt lat="45.46985" lon="4.627">
        <ele>577.89</ele>
        <time>2017-11-14T08:51:11Z</time>
      </trkpt>
      <trkpt lat="45.46985" lon="4.62673">
        <ele>579.81</ele>
        <time>2017-11-14T08:51:31Z</time>
      </trkpt>
      <trkpt lat="45.46988" lon="4.62647">
        <ele>582.7</ele>
        <time>2017-11-14T08:51:51Z</time>
      </trkpt>
      <trkpt lat="45.4699" lon="4.6262">
        <ele>585.58</ele>
        <time>2017-11-14T08:52:11Z</time>
      </trkpt>
      <trkpt lat="45.46992" lon="4.62592">
        <ele>588.46</ele>
        <time>2017-11-14T08:52:31Z</time>
      </trkpt>
      <trkpt lat="45.46995" lon="4.62568">
        <ele>591.35</ele>
        <time>2017-11-14T08:52:51Z</time>
      </trkpt>
      <trkpt lat="45.47" lon="4.62548">
        <ele>594.23</ele>
        <time>2017-11-14T08:53:11Z</time>
      </trkpt>
      <trkpt lat="45.47012" lon="4.6253">
        <ele>596.15</ele>
        <time>2017-11-14T08:53:31Z</time>
      </trkpt>
      <trkpt lat="45.47022" lon="4.62512">
        <ele>600</ele>
        <time>2017-11-14T08:53:51Z</time>
      </trkpt>
      <trkpt lat="45.47031" lon="4.62492">
        <ele>603.85</ele>
        <time>2017-11-14T08:54:11Z</time>
      </trkpt>
      <trkpt lat="45.47037" lon="4.6247">
        <ele>606.73</ele>
        <time>2017-11-14T08:54:31Z</time>
      </trkpt>
      <trkpt lat="45.47044" lon="4.62446">
        <ele>608.17</ele>
        <time>2017-11-14T08:54:51Z</time>
      </trkpt>
      <trkpt lat="45.47051" lon="4.62424">
        <ele>610.57</ele>
        <time>2017-11-14T08:55:11Z</time>
      </trkpt>
      <trkpt lat="45.47059" lon="4.624">
        <ele>612.98</ele>
        <time>2017-11-14T08:55:31Z</time>
      </trkpt>
      <trkpt lat="45.47066" lon="4.62378">
        <ele>615.38</ele>
        <time>2017-11-14T08:55:51Z</time>
      </trkpt>
      <trkpt lat="45.47073" lon="4.62357">
        <ele>618.26</ele>
        <time>2017-11-14T08:56:11Z</time>
      </trkpt>
      <trkpt lat="45.47081" lon="4.62337">
        <ele>621.15</ele>
        <time>2017-11-14T08:56:31Z</time>
      </trkpt>
      <trkpt lat="45.47088" lon="4.62316">
        <ele>624.99</ele>
        <time>2017-11-14T08:56:51Z</time>
      </trkpt>
      <trkpt lat="45.47094" lon="4.62296">
        <ele>626.92</ele>
        <time>2017-11-14T08:57:11Z</time>
      </trkpt>
      <trkpt lat="45.47099" lon="4.62279">
        <ele>630.76</ele>
        <time>2017-11-14T08:57:31Z</time>
      </trkpt>
      <trkpt lat="45.47102" lon="4.62255">
        <ele>633.17</ele>
        <time>2017-11-14T08:57:51Z</time>
      </trkpt>
      <trkpt lat="45.47106" lon="4.62231">
        <ele>635.57</ele>
        <time>2017-11-14T08:58:11Z</time>
      </trkpt>
      <trkpt lat="45.47114" lon="4.62212">
        <ele>638.45</ele>
        <time>2017-11-14T08:58:31Z</time>
      </trkpt>
      <trkpt lat="45.47125" lon="4.62197">
        <ele>640.86</ele>
        <time>2017-11-14T08:58:51Z</time>
      </trkpt>
      <trkpt lat="45.4714" lon="4.62183">
        <ele>643.74</ele>
        <time>2017-11-14T08:59:11Z</time>
      </trkpt>
      <trkpt lat="45.47153" lon="4.62166">
        <ele>647.1</ele>
        <time>2017-11-14T08:59:31Z</time>
      </trkpt>
      <trkpt lat="45.47166" lon="4.62152">
        <ele>649.51</ele>
        <time>2017-11-14T08:59:51Z</time>
      </trkpt>
      <trkpt lat="45.47179" lon="4.62139">
        <ele>652.39</ele>
        <time>2017-11-14T09:00:11Z</time>
      </trkpt>
      <trkpt lat="45.47194" lon="4.62125">
        <ele>654.8</ele>
        <time>2017-11-14T09:00:31Z</time>
      </trkpt>
      <trkpt lat="45.47205" lon="4.62107">
        <ele>657.2</ele>
        <time>2017-11-14T09:00:51Z</time>
      </trkpt>
      <trkpt lat="45.47213" lon="4.62087">
        <ele>660.08</ele>
        <time>2017-11-14T09:01:11Z</time>
      </trkpt>
      <trkpt lat="45.47224" lon="4.62066">
        <ele>662.97</ele>
        <time>2017-11-14T09:01:31Z</time>
      </trkpt>
      <trkpt lat="45.47229" lon="4.62045">
        <ele>665.37</ele>
        <time>2017-11-14T09:01:51Z</time>
      </trkpt>
      <trkpt lat="45.47234" lon="4.62036">
        <ele>666.33</ele>
        <time>2017-11-14T09:02:11Z</time>
      </trkpt>
      <trkpt lat="45.47233" lon="4.62036">
        <ele>665.85</ele>
        <time>2017-11-14T09:02:31Z</time>
      </trkpt>
      <trkpt lat="45.47232" lon="4.62037">
        <ele>666.33</ele>
        <time>2017-11-14T09:02:51Z</time>
      </trkpt>
      <trkpt lat="45.47232" lon="4.62039">
        <ele>666.81</ele>
        <time>2017-11-14T09:03:11Z</time>
      </trkpt>
      <trkpt lat="45.47231" lon="4.6204">
        <ele>666.33</ele>
        <time>2017-11-14T09:03:31Z</time>
      </trkpt>
      <trkpt lat="45.47231" lon="4.62039">
        <ele>666.33</ele>
        <time>2017-11-14T09:03:51Z</time>
      </trkpt>
      <trkpt lat="45.47233" lon="4.62037">
        <ele>666.81</ele>
        <time>2017-11-14T09:04:11Z</time>
      </trkpt>
      <trkpt lat="45.47233" lon="4.62039">
        <ele>666.33</ele>
        <time>2017-11-14T09:04:31Z</time>
      </trkpt>
      <trkpt lat="45.47235" lon="4.62039">
        <ele>666.81</ele>
        <time>2017-11-14T09:04:51Z</time>
      </trkpt>
      <trkpt lat="45.47232" lon="4.62039">
        <ele>666.81</ele>
        <time>2017-11-14T09:05:11Z</time>
      </trkpt>
      <trkpt lat="45.47231" lon="4.6204">
        <ele>667.29</ele>
        <time>2017-11-14T09:05:31Z</time>
      </trkpt>
      <trkpt lat="45.47229" lon="4.62039">
        <ele>667.77</ele>
        <time>2017-11-14T09:05:51Z</time>
      </trkpt>
      <trkpt lat="45.47232" lon="4.62039">
        <ele>666.81</ele>
        <time>2017-11-14T09:06:11Z</time>
      </trkpt>
      <trkpt lat="45.47231" lon="4.62039">
        <ele>666.33</ele>
        <time>2017-11-14T09:06:31Z</time>
      </trkpt>
      <trkpt lat="45.47233" lon="4.62036">
        <ele>667.29</ele>
        <time>2017-11-14T09:06:51Z</time>
      </trkpt>
      <trkpt lat="45.47232" lon="4.62037">
        <ele>666.81</ele>
        <time>2017-11-14T09:07:11Z</time>
      </trkpt>
      <trkpt lat="45.47231" lon="4.62037">
        <ele>666.81</ele>
        <time>2017-11-14T09:07:31Z</time>
      </trkpt>
      <trkpt lat="45.47231" lon="4.62038">
        <ele>667.29</ele>
        <time>2017-11-14T09:07:51Z</time>
      </trkpt>
      <trkpt lat="45.4723" lon="4.62036">
        <ele>667.29</ele>
        <time>2017-11-14T09:08:11Z</time>
      </trkpt>
      <trkpt lat="45.4723" lon="4.62036">
        <ele>667.77</ele>
        <time>2017-11-14T09:08:31Z</time>
      </trkpt>
      <trkpt lat="45.47233" lon="4.62037">
        <ele>667.77</ele>
        <time>2017-11-14T09:08:51Z</time>
      </trkpt>
      <trkpt lat="45.47232" lon="4.62038">
        <ele>667.29</ele>
        <time>2017-11-14T09:09:11Z</time>
      </trkpt>
      <trkpt lat="45.47231" lon="4.6204">
        <ele>667.29</ele>
        <time>2017-11-14T09:09:31Z</time>
      </trkpt>
      <trkpt lat="45.4723" lon="4.62039">
        <ele>667.29</ele>
        <time>2017-11-14T09:09:51Z</time>
      </trkpt>
      <trkpt lat="45.4723" lon="4.62037">
        <ele>667.29</ele>
        <time>2017-11-14T09:10:11Z</time>
      </trkpt>
      <trkpt lat="45.4723" lon="4.62039">
        <ele>667.29</ele>
        <time>2017-11-14T09:10:31Z</time>
      </trkpt>
      <trkpt lat="45.47233" lon="4.6204">
        <ele>667.77</ele>
        <time>2017-11-14T09:10:51Z</time>
      </trkpt>
      <trkpt lat="45.47234" lon="4.62039">
        <ele>667.77</ele>
        <time>2017-11-14T09:11:11Z</time>
      </trkpt>
      <trkpt lat="45.4723" lon="4.62039">
        <ele>667.77</ele>
        <time>2017-11-14T09:11:31Z</time>
      </trkpt>
      <trkpt lat="45.47216" lon="4.62052">
        <ele>667.77</ele>
        <time>2017-11-14T09:11:51Z</time>
      </trkpt>
      <trkpt lat="45.47198" lon="4.62064">
        <ele>669.7</ele>
        <time>2017-11-14T09:12:11Z</time>
      </trkpt>
      <trkpt lat="45.4718" lon="4.62071">
        <ele>671.62</ele>
        <time>2017-11-14T09:12:31Z</time>
      </trkpt>
      <trkpt lat="45.47161" lon="4.62078">
        <ele>673.54</ele>
        <time>2017-11-14T09:12:51Z</time>
      </trkpt>
      <trkpt lat="45.47144" lon="4.62089">
        <ele>675.46</ele>
        <time>2017-11-14T09:13:11Z</time>
      </trkpt>
      <trkpt lat="45.47125" lon="4.62099">
        <ele>677.39</ele>
        <time>2017-11-14T09:13:31Z</time>
      </trkpt>
      <trkpt lat="45.47108" lon="4.6211">
        <ele>678.35</ele>
        <time>2017-11-14T09:13:51Z</time>
      </trkpt>
      <trkpt lat="45.47089" lon="4.62122">
        <ele>680.27</ele>
        <time>2017-11-14T09:14:11Z</time>
      </trkpt>
      <trkpt lat="45.4707" lon="4.62135">
        <ele>682.19</ele>
        <time>2017-11-14T09:14:31Z</time>
      </trkpt>
      <trkpt lat="45.4705" lon="4.62149">
        <ele>682.67</ele>
        <time>2017-11-14T09:14:51Z</time>
      </trkpt>
      <trkpt lat="45.47032" lon="4.62154">
        <ele>684.6</ele>
        <time>2017-11-14T09:15:11Z</time>
      </trkpt>
      <trkpt lat="45.47013" lon="4.62162">
        <ele>686.04</ele>
        <time>2017-11-14T09:15:31Z</time>
      </trkpt>
      <trkpt lat="45.46995" lon="4.62167">
        <ele>688.44</ele>
        <time>2017-11-14T09:15:51Z</time>
      </trkpt>
      <trkpt lat="45.46974" lon="4.62172">
        <ele>689.88</ele>
        <time>2017-11-14T09:16:11Z</time>
      </trkpt>
      <trkpt lat="45.46955" lon="4.62173">
        <ele>692.29</ele>
        <time>2017-11-14T09:16:31Z</time>
      </trkpt>
      <trkpt lat="45.46934" lon="4.62177">
        <ele>693.73</ele>
        <time>2017-11-14T09:16:51Z</time>
      </trkpt>
      <trkpt lat="45.46911" lon="4.62179">
        <ele>694.69</ele>
        <time>2017-11-14T09:17:11Z</time>
      </trkpt>
      <trkpt lat="45.46889" lon="4.62181">
        <ele>695.17</ele>
        <time>2017-11-14T09:17:31Z</time>
      </trkpt>
      <trkpt lat="45.46866" lon="4.62184">
        <ele>694.21</ele>
        <time>2017-11-14T09:17:51Z</time>
      </trkpt>
      <trkpt lat="45.46844" lon="4.62186">
        <ele>694.21</ele>
        <time>2017-11-14T09:18:11Z</time>
      </trkpt>
      <trkpt lat="45.46821" lon="4.62187">
        <ele>693.73</ele>
        <time>2017-11-14T09:18:31Z</time>
      </trkpt>
      <trkpt lat="45.46799" lon="4.62182">
        <ele>692.29</ele>
        <time>2017-11-14T09:18:51Z</time>
      </trkpt>
      <trkpt lat="45.46777" lon="4.62171">
        <ele>691.81</ele>
        <time>2017-11-14T09:19:11Z</time>
      </trkpt>
      <trkpt lat="45.46756" lon="4.62154">
        <ele>690.84</ele>
        <time>2017-11-14T09:19:31Z</time>
      </trkpt>
      <trkpt lat="45.46738" lon="4.62135">
        <ele>690.84</ele>
        <time>2017-11-14T09:19:51Z</time>
      </trkpt>
      <trkpt lat="45.4672" lon="4.62113">
        <ele>691.33</ele>
        <time>2017-11-14T09:20:11Z</time>
      </trkpt>
      <trkpt lat="45.467" lon="4.62094">
        <ele>691.33</ele>
        <time>2017-11-14T09:20:31Z</time>
      </trkpt>
      <trkpt lat="45.46681" lon="4.62076">
        <ele>690.36</ele>
        <time>2017-11-14T09:20:51Z</time>
      </trkpt>
      <trkpt lat="45.46661" lon="4.62056">
        <ele>690.84</ele>
        <time>2017-11-14T09:21:11Z</time>
      </trkpt>
      <trkpt lat="45.46643" lon="4.62036">
        <ele>690.84</ele>
        <time>2017-11-14T09:21:31Z</time>
      </trkpt>
      <trkpt lat="45.46622" lon="4.62018">
        <ele>689.4</ele>
        <time>2017-11-14T09:21:51Z</time>
      </trkpt>
      <trkpt lat="45.46604" lon="4.61999">
        <ele>688.44</ele>
        <time>2017-11-14T09:22:11Z</time>
      </trkpt>
      <trkpt lat="45.46587" lon="4.61975">
        <ele>688.44</ele>
        <time>2017-11-14T09:22:31Z</time>
      </trkpt>
      <trkpt lat="45.46564" lon="4.6196">
        <ele>688.92</ele>
        <time>2017-11-14T09:22:51Z</time>
      </trkpt>
      <trkpt lat="45.46541" lon="4.61952">
        <ele>690.84</ele>
        <time>2017-11-14T09:23:11Z</time>
      </trkpt>
      <trkpt lat="45.46517" lon="4.6195">
        <ele>691.81</ele>
        <time>2017-11-14T09:23:31Z</time>
      </trkpt>
      <trkpt lat="45.46493" lon="4.61955">
        <ele>690.36</ele>
        <time>2017-11-14T09:23:51Z</time>
      </trkpt>
      <trkpt lat="45.46469" lon="4.61956">
        <ele>688.92</ele>
        <time>2017-11-14T09:24:11Z</time>
      </trkpt>
      <trkpt lat="45.46447" lon="4.61958">
        <ele>687</ele>
        <time>2017-11-14T09:24:31Z</time>
      </trkpt>
      <trkpt lat="45.46423" lon="4.61961">
        <ele>684.12</ele>
        <time>2017-11-14T09:24:51Z</time>
      </trkpt>
      <trkpt lat="45.46401" lon="4.61961">
        <ele>681.71</ele>
        <time>2017-11-14T09:25:11Z</time>
      </trkpt>
      <trkpt lat="45.46374" lon="4.61965">
        <ele>679.31</ele>
        <time>2017-11-14T09:25:31Z</time>
      </trkpt>
      <trkpt lat="45.4635" lon="4.61967">
        <ele>678.35</ele>
        <time>2017-11-14T09:25:51Z</time>
      </trkpt>
      <trkpt lat="45.46328" lon="4.6197">
        <ele>676.91</ele>
        <time>2017-11-14T09:26:11Z</time>
      </trkpt>
      <trkpt lat="45.46306" lon="4.61973">
        <ele>674.5</ele>
        <time>2017-11-14T09:26:31Z</time>
      </trkpt>
      <trkpt lat="45.46283" lon="4.61969">
        <ele>673.54</ele>
        <time>2017-11-14T09:26:51Z</time>
      </trkpt>
      <trkpt lat="45.46262" lon="4.61969">
        <ele>672.58</ele>
        <time>2017-11-14T09:27:11Z</time>
      </trkpt>
      <trkpt lat="45.46243" lon="4.61966">
        <ele>670.18</ele>
        <time>2017-11-14T09:27:31Z</time>
      </trkpt>
      <trkpt lat="45.46222" lon="4.61964">
        <ele>669.22</ele>
        <time>2017-11-14T09:27:51Z</time>
      </trkpt>
      <trkpt lat="45.462" lon="4.61959">
        <ele>667.77</ele>
        <time>2017-11-14T09:28:11Z</time>
      </trkpt>
      <trkpt lat="45.46179" lon="4.61952">
        <ele>665.85</ele>
        <time>2017-11-14T09:28:31Z</time>
      </trkpt>
      <trkpt lat="45.46156" lon="4.61949">
        <ele>664.41</ele>
        <time>2017-11-14T09:28:51Z</time>
      </trkpt>
      <trkpt lat="45.46132" lon="4.61946">
        <ele>662.49</ele>
        <time>2017-11-14T09:29:11Z</time>
      </trkpt>
      <trkpt lat="45.46108" lon="4.6194">
        <ele>660.56</ele>
        <time>2017-11-14T09:29:31Z</time>
      </trkpt>
      <trkpt lat="45.46086" lon="4.61938">
        <ele>658.16</ele>
        <time>2017-11-14T09:29:51Z</time>
      </trkpt>
      <trkpt lat="45.46064" lon="4.61949">
        <ele>656.72</ele>
        <time>2017-11-14T09:30:11Z</time>
      </trkpt>
      <trkpt lat="45.46046" lon="4.61961">
        <ele>654.8</ele>
        <time>2017-11-14T09:30:31Z</time>
      </trkpt>
      <trkpt lat="45.46036" lon="4.61974">
        <ele>655.76</ele>
        <time>2017-11-14T09:30:51Z</time>
      </trkpt>
      <trkpt lat="45.46036" lon="4.61974">
        <ele>655.28</ele>
        <time>2017-11-14T09:31:11Z</time>
      </trkpt>
      <trkpt lat="45.46035" lon="4.61988">
        <ele>654.31</ele>
        <time>2017-11-14T09:31:31Z</time>
      </trkpt>
      <trkpt lat="45.46021" lon="4.62002">
        <ele>657.2</ele>
        <time>2017-11-14T09:31:51Z</time>
      </trkpt>
      <trkpt lat="45.46007" lon="4.62013">
        <ele>659.6</ele>
        <time>2017-11-14T09:32:11Z</time>
      </trkpt>
      <trkpt lat="45.45994" lon="4.62025">
        <ele>662.49</ele>
        <time>2017-11-14T09:32:31Z</time>
      </trkpt>
      <trkpt lat="45.45982" lon="4.62038">
        <ele>665.37</ele>
        <time>2017-11-14T09:32:51Z</time>
      </trkpt>
      <trkpt lat="45.45972" lon="4.62053">
        <ele>668.25</ele>
        <time>2017-11-14T09:33:11Z</time>
      </trkpt>
      <trkpt lat="45.45962" lon="4.62065">
        <ele>671.62</ele>
        <time>2017-11-14T09:33:31Z</time>
      </trkpt>
      <trkpt lat="45.45949" lon="4.62076">
        <ele>673.54</ele>
        <time>2017-11-14T09:33:51Z</time>
      </trkpt>
      <trkpt lat="45.45938" lon="4.62086">
        <ele>677.39</ele>
        <time>2017-11-14T09:34:11Z</time>
      </trkpt>
      <trkpt lat="45.45925" lon="4.62092">
        <ele>680.27</ele>
        <time>2017-11-14T09:34:31Z</time>
      </trkpt>
      <trkpt lat="45.45913" lon="4.62104">
        <ele>682.19</ele>
        <time>2017-11-14T09:34:51Z</time>
      </trkpt>
      <trkpt lat="45.45901" lon="4.62112">
        <ele>685.08</ele>
        <time>2017-11-14T09:35:11Z</time>
      </trkpt>
      <trkpt lat="45.45888" lon="4.62118">
        <ele>688.44</ele>
        <time>2017-11-14T09:35:31Z</time>
      </trkpt>
      <trkpt lat="45.45875" lon="4.62116">
        <ele>691.33</ele>
        <time>2017-11-14T09:35:51Z</time>
      </trkpt>
      <trkpt lat="45.4586" lon="4.62109">
        <ele>694.69</ele>
        <time>2017-11-14T09:36:11Z</time>
      </trkpt>
      <trkpt lat="45.45844" lon="4.62101">
        <ele>696.61</ele>
        <time>2017-11-14T09:36:31Z</time>
      </trkpt>
      <trkpt lat="45.45827" lon="4.62101">
        <ele>698.53</ele>
        <time>2017-11-14T09:36:51Z</time>
      </trkpt>
      <trkpt lat="45.45813" lon="4.62114">
        <ele>699.02</ele>
        <time>2017-11-14T09:37:11Z</time>
      </trkpt>
      <trkpt lat="45.45799" lon="4.62128">
        <ele>701.9</ele>
        <time>2017-11-14T09:37:31Z</time>
      </trkpt>
      <trkpt lat="45.45792" lon="4.62147">
        <ele>704.78</ele>
        <time>2017-11-14T09:37:51Z</time>
      </trkpt>
      <trkpt lat="45.45784" lon="4.62167">
        <ele>707.19</ele>
        <time>2017-11-14T09:38:11Z</time>
      </trkpt>
      <trkpt lat="45.45776" lon="4.6218">
        <ele>708.63</ele>
        <time>2017-11-14T09:38:31Z</time>
      </trkpt>
      <trkpt lat="45.45769" lon="4.622">
        <ele>711.51</ele>
        <time>2017-11-14T09:38:51Z</time>
      </trkpt>
      <trkpt lat="45.45763" lon="4.62216">
        <ele>713.44</ele>
        <time>2017-11-14T09:39:11Z</time>
      </trkpt>
      <trkpt lat="45.45756" lon="4.62237">
        <ele>716.32</ele>
        <time>2017-11-14T09:39:31Z</time>
      </trkpt>
      <trkpt lat="45.4575" lon="4.62257">
        <ele>718.72</ele>
        <time>2017-11-14T09:39:51Z</time>
      </trkpt>
      <trkpt lat="45.45746" lon="4.6228">
        <ele>721.61</ele>
        <time>2017-11-14T09:40:11Z</time>
      </trkpt>
      <trkpt lat="45.45739" lon="4.62298">
        <ele>724.49</ele>
        <time>2017-11-14T09:40:31Z</time>
      </trkpt>
      <trkpt lat="45.45734" lon="4.62315">
        <ele>726.41</ele>
        <time>2017-11-14T09:40:51Z</time>
      </trkpt>
      <trkpt lat="45.45728" lon="4.62332">
        <ele>728.34</ele>
        <time>2017-11-14T09:41:11Z</time>
      </trkpt>
      <trkpt lat="45.45721" lon="4.6235">
        <ele>731.22</ele>
        <time>2017-11-14T09:41:31Z</time>
      </trkpt>
      <trkpt lat="45.45716" lon="4.62362">
        <ele>732.66</ele>
        <time>2017-11-14T09:41:51Z</time>
      </trkpt>
      <trkpt lat="45.45709" lon="4.62379">
        <ele>735.55</ele>
        <time>2017-11-14T09:42:11Z</time>
      </trkpt>
      <trkpt lat="45.45701" lon="4.62398">
        <ele>738.43</ele>
        <time>2017-11-14T09:42:31Z</time>
      </trkpt>
      <trkpt lat="45.45691" lon="4.62413">
        <ele>739.39</ele>
        <time>2017-11-14T09:42:51Z</time>
      </trkpt>
      <trkpt lat="45.4568" lon="4.62431">
        <ele>741.31</ele>
        <time>2017-11-14T09:43:11Z</time>
      </trkpt>
      <trkpt lat="45.45667" lon="4.62446">
        <ele>742.28</ele>
        <time>2017-11-14T09:43:31Z</time>
      </trkpt>
      <trkpt lat="45.45657" lon="4.62465">
        <ele>745.16</ele>
        <time>2017-11-14T09:43:51Z</time>
      </trkpt>
      <trkpt lat="45.45642" lon="4.62483">
        <ele>746.6</ele>
        <time>2017-11-14T09:44:11Z</time>
      </trkpt>
      <trkpt lat="45.45629" lon="4.62503">
        <ele>747.08</ele>
        <time>2017-11-14T09:44:31Z</time>
      </trkpt>
      <trkpt lat="45.45622" lon="4.62517">
        <ele>748.52</ele>
        <time>2017-11-14T09:44:51Z</time>
      </trkpt>
      <trkpt lat="45.45614" lon="4.62525">
        <ele>748.52</ele>
        <time>2017-11-14T09:45:11Z</time>
      </trkpt>
      <trkpt lat="45.45616" lon="4.62529">
        <ele>748.52</ele>
        <time>2017-11-14T09:45:31Z</time>
      </trkpt>
      <trkpt lat="45.45612" lon="4.62536">
        <ele>748.04</ele>
        <time>2017-11-14T09:45:51Z</time>
      </trkpt>
      <trkpt lat="45.45601" lon="4.62547">
        <ele>749</ele>
        <time>2017-11-14T09:46:11Z</time>
      </trkpt>
      <trkpt lat="45.4559" lon="4.62559">
        <ele>750.45</ele>
        <time>2017-11-14T09:46:31Z</time>
      </trkpt>
      <trkpt lat="45.45573" lon="4.62571">
        <ele>751.89</ele>
        <time>2017-11-14T09:46:51Z</time>
      </trkpt>
      <trkpt lat="45.45558" lon="4.62581">
        <ele>753.33</ele>
        <time>2017-11-14T09:47:11Z</time>
      </trkpt>
      <trkpt lat="45.45538" lon="4.62593">
        <ele>755.73</ele>
        <time>2017-11-14T09:47:31Z</time>
      </trkpt>
      <trkpt lat="45.45519" lon="4.62601">
        <ele>757.18</ele>
        <time>2017-11-14T09:47:51Z</time>
      </trkpt>
      <trkpt lat="45.45498" lon="4.62607">
        <ele>759.1</ele>
        <time>2017-11-14T09:48:11Z</time>
      </trkpt>
      <trkpt lat="45.45481" lon="4.62617">
        <ele>760.54</ele>
        <time>2017-11-14T09:48:31Z</time>
      </trkpt>
      <trkpt lat="45.45467" lon="4.62619">
        <ele>762.46</ele>
        <time>2017-11-14T09:48:51Z</time>
      </trkpt>
      <trkpt lat="45.45447" lon="4.62623">
        <ele>764.87</ele>
        <time>2017-11-14T09:49:11Z</time>
      </trkpt>
      <trkpt lat="45.45433" lon="4.62619">
        <ele>766.31</ele>
        <time>2017-11-14T09:49:31Z</time>
      </trkpt>
      <trkpt lat="45.45413" lon="4.62619">
        <ele>768.71</ele>
        <time>2017-11-14T09:49:51Z</time>
      </trkpt>
      <trkpt lat="45.45394" lon="4.62623">
        <ele>769.67</ele>
        <time>2017-11-14T09:50:11Z</time>
      </trkpt>
      <trkpt lat="45.45379" lon="4.62619">
        <ele>772.08</ele>
        <time>2017-11-14T09:50:31Z</time>
      </trkpt>
      <trkpt lat="45.4536" lon="4.62615">
        <ele>773.52</ele>
        <time>2017-11-14T09:50:51Z</time>
      </trkpt>
      <trkpt lat="45.45344" lon="4.62611">
        <ele>774.96</ele>
        <time>2017-11-14T09:51:11Z</time>
      </trkpt>
      <trkpt lat="45.45324" lon="4.62611">
        <ele>776.88</ele>
        <time>2017-11-14T09:51:31Z</time>
      </trkpt>
      <trkpt lat="45.45307" lon="4.62609">
        <ele>777.84</ele>
        <time>2017-11-14T09:51:51Z</time>
      </trkpt>
      <trkpt lat="45.45288" lon="4.62613">
        <ele>780.25</ele>
        <time>2017-11-14T09:52:11Z</time>
      </trkpt>
      <trkpt lat="45.45274" lon="4.62618">
        <ele>782.65</ele>
        <time>2017-11-14T09:52:31Z</time>
      </trkpt>
      <trkpt lat="45.45259" lon="4.62619">
        <ele>784.57</ele>
        <time>2017-11-14T09:52:51Z</time>
      </trkpt>
      <trkpt lat="45.45239" lon="4.62621">
        <ele>786.02</ele>
        <time>2017-11-14T09:53:11Z</time>
      </trkpt>
      <trkpt lat="45.4522" lon="4.6263">
        <ele>787.94</ele>
        <time>2017-11-14T09:53:31Z</time>
      </trkpt>
      <trkpt lat="45.45202" lon="4.62638">
        <ele>788.42</ele>
        <time>2017-11-14T09:53:51Z</time>
      </trkpt>
      <trkpt lat="45.45186" lon="4.62629">
        <ele>789.38</ele>
        <time>2017-11-14T09:54:11Z</time>
      </trkpt>
      <trkpt lat="45.45167" lon="4.62627">
        <ele>793.22</ele>
        <time>2017-11-14T09:54:31Z</time>
      </trkpt>
      <trkpt lat="45.45148" lon="4.6262">
        <ele>793.71</ele>
        <time>2017-11-14T09:54:51Z</time>
      </trkpt>
      <trkpt lat="45.45129" lon="4.62615">
        <ele>793.22</ele>
        <time>2017-11-14T09:55:11Z</time>
      </trkpt>
      <trkpt lat="45.45103" lon="4.62616">
        <ele>794.19</ele>
        <time>2017-11-14T09:55:31Z</time>
      </trkpt>
      <trkpt lat="45.45084" lon="4.6262">
        <ele>795.15</ele>
        <time>2017-11-14T09:55:51Z</time>
      </trkpt>
      <trkpt lat="45.45068" lon="4.62628">
        <ele>796.59</ele>
        <time>2017-11-14T09:56:11Z</time>
      </trkpt>
      <trkpt lat="45.45048" lon="4.62633">
        <ele>798.03</ele>
        <time>2017-11-14T09:56:31Z</time>
      </trkpt>
      <trkpt lat="45.45032" lon="4.62642">
        <ele>799.47</ele>
        <time>2017-11-14T09:56:51Z</time>
      </trkpt>
      <trkpt lat="45.45015" lon="4.6265">
        <ele>800.44</ele>
        <time>2017-11-14T09:57:11Z</time>
      </trkpt>
      <trkpt lat="45.44998" lon="4.62658">
        <ele>801.88</ele>
        <time>2017-11-14T09:57:31Z</time>
      </trkpt>
      <trkpt lat="45.44978" lon="4.62668">
        <ele>803.8</ele>
        <time>2017-11-14T09:57:51Z</time>
      </trkpt>
      <trkpt lat="45.44958" lon="4.62674">
        <ele>804.76</ele>
        <time>2017-11-14T09:58:11Z</time>
      </trkpt>
      <trkpt lat="45.44941" lon="4.62677">
        <ele>806.2</ele>
        <time>2017-11-14T09:58:31Z</time>
      </trkpt>
      <trkpt lat="45.44929" lon="4.62683">
        <ele>809.57</ele>
        <time>2017-11-14T09:58:51Z</time>
      </trkpt>
      <trkpt lat="45.44906" lon="4.62687">
        <ele>811.01</ele>
        <time>2017-11-14T09:59:11Z</time>
      </trkpt>
      <trkpt lat="45.4489" lon="4.62694">
        <ele>812.93</ele>
        <time>2017-11-14T09:59:31Z</time>
      </trkpt>
      <trkpt lat="45.44876" lon="4.62696">
        <ele>814.85</ele>
        <time>2017-11-14T09:59:51Z</time>
      </trkpt>
      <trkpt lat="45.44855" lon="4.62701">
        <ele>815.82</ele>
        <time>2017-11-14T10:00:11Z</time>
      </trkpt>
      <trkpt lat="45.4484" lon="4.62705">
        <ele>817.26</ele>
        <time>2017-11-14T10:00:31Z</time>
      </trkpt>
      <trkpt lat="45.44819" lon="4.6271">
        <ele>818.22</ele>
        <time>2017-11-14T10:00:51Z</time>
      </trkpt>
      <trkpt lat="45.44798" lon="4.62717">
        <ele>819.18</ele>
        <time>2017-11-14T10:01:11Z</time>
      </trkpt>
      <trkpt lat="45.44778" lon="4.6273">
        <ele>819.66</ele>
        <time>2017-11-14T10:01:31Z</time>
      </trkpt>
      <trkpt lat="45.44762" lon="4.62744">
        <ele>821.58</ele>
        <time>2017-11-14T10:01:51Z</time>
      </trkpt>
      <trkpt lat="45.44746" lon="4.62759">
        <ele>823.03</ele>
        <time>2017-11-14T10:02:11Z</time>
      </trkpt>
      <trkpt lat="45.4473" lon="4.62778">
        <ele>823.99</ele>
        <time>2017-11-14T10:02:31Z</time>
      </trkpt>
      <trkpt lat="45.44715" lon="4.62799">
        <ele>824.95</ele>
        <time>2017-11-14T10:02:51Z</time>
      </trkpt>
      <trkpt lat="45.44706" lon="4.6282">
        <ele>825.91</ele>
        <time>2017-11-14T10:03:11Z</time>
      </trkpt>
      <trkpt lat="45.44706" lon="4.62823">
        <ele>826.39</ele>
        <time>2017-11-14T10:03:31Z</time>
      </trkpt>
      <trkpt lat="45.44705" lon="4.62828">
        <ele>825.91</ele>
        <time>2017-11-14T10:03:51Z</time>
      </trkpt>
      <trkpt lat="45.447" lon="4.62846">
        <ele>825.43</ele>
        <time>2017-11-14T10:04:11Z</time>
      </trkpt>
      <trkpt lat="45.44694" lon="4.62854">
        <ele>825.43</ele>
        <time>2017-11-14T10:04:31Z</time>
      </trkpt>
      <trkpt lat="45.447" lon="4.62857">
        <ele>824.47</ele>
        <time>2017-11-14T10:04:51Z</time>
      </trkpt>
      <trkpt lat="45.44699" lon="4.62859">
        <ele>824.47</ele>
        <time>2017-11-14T10:05:11Z</time>
      </trkpt>
      <trkpt lat="45.44701" lon="4.6286">
        <ele>824.95</ele>
        <time>2017-11-14T10:05:31Z</time>
      </trkpt>
      <trkpt lat="45.44701" lon="4.6286">
        <ele>824.95</ele>
        <time>2017-11-14T10:05:51Z</time>
      </trkpt>
      <trkpt lat="45.447" lon="4.62862">
        <ele>824.95</ele>
        <time>2017-11-14T10:06:11Z</time>
      </trkpt>
      <trkpt lat="45.44699" lon="4.6286">
        <ele>825.91</ele>
        <time>2017-11-14T10:06:31Z</time>
      </trkpt>
      <trkpt lat="45.44697" lon="4.6287">
        <ele>824.47</ele>
        <time>2017-11-14T10:06:51Z</time>
      </trkpt>
      <trkpt lat="45.44693" lon="4.62897">
        <ele>823.51</ele>
        <time>2017-11-14T10:07:11Z</time>
      </trkpt>
      <trkpt lat="45.44689" lon="4.62927">
        <ele>822.06</ele>
        <time>2017-11-14T10:07:31Z</time>
      </trkpt>
      <trkpt lat="45.44687" lon="4.62957">
        <ele>821.58</ele>
        <time>2017-11-14T10:07:51Z</time>
      </trkpt>
      <trkpt lat="45.44688" lon="4.6299">
        <ele>821.1</ele>
        <time>2017-11-14T10:08:11Z</time>
      </trkpt>
      <trkpt lat="45.44691" lon="4.63021">
        <ele>819.66</ele>
        <time>2017-11-14T10:08:31Z</time>
      </trkpt>
      <trkpt lat="45.44691" lon="4.63053">
        <ele>818.7</ele>
        <time>2017-11-14T10:08:51Z</time>
      </trkpt>
      <trkpt lat="45.44691" lon="4.63084">
        <ele>817.74</ele>
        <time>2017-11-14T10:09:11Z</time>
      </trkpt>
      <trkpt lat="45.44678" lon="4.63109">
        <ele>816.78</ele>
        <time>2017-11-14T10:09:31Z</time>
      </trkpt>
      <trkpt lat="45.44656" lon="4.63122">
        <ele>816.3</ele>
        <time>2017-11-14T10:09:51Z</time>
      </trkpt>
      <trkpt lat="45.44635" lon="4.63133">
        <ele>814.85</ele>
        <time>2017-11-14T10:10:11Z</time>
      </trkpt>
      <trkpt lat="45.44614" lon="4.63147">
        <ele>813.89</ele>
        <time>2017-11-14T10:10:31Z</time>
      </trkpt>
      <trkpt lat="45.44595" lon="4.63164">
        <ele>813.89</ele>
        <time>2017-11-14T10:10:51Z</time>
      </trkpt>
      <trkpt lat="45.44576" lon="4.63183">
        <ele>812.93</ele>
        <time>2017-11-14T10:11:11Z</time>
      </trkpt>
      <trkpt lat="45.44561" lon="4.63203">
        <ele>813.89</ele>
        <time>2017-11-14T10:11:31Z</time>
      </trkpt>
      <trkpt lat="45.44544" lon="4.63222">
        <ele>812.93</ele>
        <time>2017-11-14T10:11:51Z</time>
      </trkpt>
      <trkpt lat="45.44526" lon="4.63243">
        <ele>814.85</ele>
        <time>2017-11-14T10:12:11Z</time>
      </trkpt>
      <trkpt lat="45.44522" lon="4.63254">
        <ele>812.93</ele>
        <time>2017-11-14T10:12:31Z</time>
      </trkpt>
      <trkpt lat="45.44522" lon="4.63274">
        <ele>812.45</ele>
        <time>2017-11-14T10:12:51Z</time>
      </trkpt>
      <trkpt lat="45.44514" lon="4.63302">
        <ele>811.49</ele>
        <time>2017-11-14T10:13:11Z</time>
      </trkpt>
      <trkpt lat="45.44513" lon="4.63329">
        <ele>810.53</ele>
        <time>2017-11-14T10:13:31Z</time>
      </trkpt>
      <trkpt lat="45.44514" lon="4.63364">
        <ele>808.61</ele>
        <time>2017-11-14T10:13:51Z</time>
      </trkpt>
      <trkpt lat="45.4452" lon="4.63397">
        <ele>807.16</ele>
        <time>2017-11-14T10:14:11Z</time>
      </trkpt>
      <trkpt lat="45.44526" lon="4.63429">
        <ele>804.76</ele>
        <time>2017-11-14T10:14:31Z</time>
      </trkpt>
      <trkpt lat="45.44532" lon="4.6346">
        <ele>802.84</ele>
        <time>2017-11-14T10:14:51Z</time>
      </trkpt>
      <trkpt lat="45.44537" lon="4.63494">
        <ele>801.88</ele>
        <time>2017-11-14T10:15:11Z</time>
      </trkpt>
      <trkpt lat="45.44543" lon="4.63529">
        <ele>800.92</ele>
        <time>2017-11-14T10:15:31Z</time>
      </trkpt>
      <trkpt lat="45.44548" lon="4.63563">
        <ele>799.47</ele>
        <time>2017-11-14T10:15:51Z</time>
      </trkpt>
      <trkpt lat="45.44555" lon="4.63595">
        <ele>798.03</ele>
        <time>2017-11-14T10:16:11Z</time>
      </trkpt>
      <trkpt lat="45.44562" lon="4.63627">
        <ele>796.11</ele>
        <time>2017-11-14T10:16:31Z</time>
      </trkpt>
      <trkpt lat="45.44567" lon="4.63657">
        <ele>795.15</ele>
        <time>2017-11-14T10:16:51Z</time>
      </trkpt>
      <trkpt lat="45.44574" lon="4.63677">
        <ele>795.15</ele>
        <time>2017-11-14T10:17:11Z</time>
      </trkpt>
      <trkpt lat="45.44582" lon="4.63702">
        <ele>794.19</ele>
        <time>2017-11-14T10:17:31Z</time>
      </trkpt>
      <trkpt lat="45.44583" lon="4.63705">
        <ele>794.19</ele>
        <time>2017-11-14T10:17:51Z</time>
      </trkpt>
      <trkpt lat="45.44591" lon="4.6373">
        <ele>797.07</ele>
        <time>2017-11-14T10:18:11Z</time>
      </trkpt>
      <trkpt lat="45.44601" lon="4.63753">
        <ele>798.99</ele>
        <time>2017-11-14T10:18:31Z</time>
      </trkpt>
      <trkpt lat="45.44611" lon="4.63774">
        <ele>800.92</ele>
        <time>2017-11-14T10:18:51Z</time>
      </trkpt>
      <trkpt lat="45.44622" lon="4.63793">
        <ele>802.84</ele>
        <time>2017-11-14T10:19:11Z</time>
      </trkpt>
      <trkpt lat="45.44631" lon="4.63813">
        <ele>804.76</ele>
        <time>2017-11-14T10:19:31Z</time>
      </trkpt>
      <trkpt lat="45.44643" lon="4.63832">
        <ele>806.68</ele>
        <time>2017-11-14T10:19:51Z</time>
      </trkpt>
      <trkpt lat="45.44652" lon="4.6385">
        <ele>809.57</ele>
        <time>2017-11-14T10:20:11Z</time>
      </trkpt>
      <trkpt lat="45.44662" lon="4.6387">
        <ele>811.97</ele>
        <time>2017-11-14T10:20:31Z</time>
      </trkpt>
      <trkpt lat="45.44673" lon="4.6389">
        <ele>814.37</ele>
        <time>2017-11-14T10:20:51Z</time>
      </trkpt>
      <trkpt lat="45.44682" lon="4.63908">
        <ele>817.26</ele>
        <time>2017-11-14T10:21:11Z</time>
      </trkpt>
      <trkpt lat="45.4469" lon="4.63928">
        <ele>819.66</ele>
        <time>2017-11-14T10:21:31Z</time>
      </trkpt>
      <trkpt lat="45.44699" lon="4.6395">
        <ele>821.58</ele>
        <time>2017-11-14T10:21:51Z</time>
      </trkpt>
      <trkpt lat="45.44708" lon="4.63969">
        <ele>823.99</ele>
        <time>2017-11-14T10:22:11Z</time>
      </trkpt>
      <trkpt lat="45.44716" lon="4.63991">
        <ele>826.87</ele>
        <time>2017-11-14T10:22:31Z</time>
      </trkpt>
      <trkpt lat="45.44727" lon="4.64008">
        <ele>829.27</ele>
        <time>2017-11-14T10:22:51Z</time>
      </trkpt>
      <trkpt lat="45.44739" lon="4.64024">
        <ele>832.16</ele>
        <time>2017-11-14T10:23:11Z</time>
      </trkpt>
      <trkpt lat="45.44745" lon="4.64049">
        <ele>833.6</ele>
        <time>2017-11-14T10:23:31Z</time>
      </trkpt>
      <trkpt lat="45.44753" lon="4.64069">
        <ele>836</ele>
        <time>2017-11-14T10:23:51Z</time>
      </trkpt>
      <trkpt lat="45.44761" lon="4.64092">
        <ele>837.45</ele>
        <time>2017-11-14T10:24:11Z</time>
      </trkpt>
      <trkpt lat="45.4477" lon="4.64111">
        <ele>839.37</ele>
        <time>2017-11-14T10:24:31Z</time>
      </trkpt>
      <trkpt lat="45.4478" lon="4.64132">
        <ele>840.33</ele>
        <time>2017-11-14T10:24:51Z</time>
      </trkpt>
      <trkpt lat="45.4479" lon="4.64154">
        <ele>842.25</ele>
        <time>2017-11-14T10:25:11Z</time>
      </trkpt>
      <trkpt lat="45.44801" lon="4.64178">
        <ele>844.18</ele>
        <time>2017-11-14T10:25:31Z</time>
      </trkpt>
      <trkpt lat="45.44806" lon="4.64204">
        <ele>846.1</ele>
        <time>2017-11-14T10:25:51Z</time>
      </trkpt>
      <trkpt lat="45.44811" lon="4.64229">
        <ele>847.54</ele>
        <time>2017-11-14T10:26:11Z</time>
      </trkpt>
      <trkpt lat="45.44818" lon="4.64259">
        <ele>848.02</ele>
        <time>2017-11-14T10:26:31Z</time>
      </trkpt>
      <trkpt lat="45.44824" lon="4.64289">
        <ele>848.98</ele>
        <time>2017-11-14T10:26:51Z</time>
      </trkpt>
      <trkpt lat="45.44829" lon="4.64318">
        <ele>851.38</ele>
        <time>2017-11-14T10:27:11Z</time>
      </trkpt>
      <trkpt lat="45.44835" lon="4.64344">
        <ele>851.87</ele>
        <time>2017-11-14T10:27:31Z</time>
      </trkpt>
      <trkpt lat="45.44844" lon="4.64375">
        <ele>853.79</ele>
        <time>2017-11-14T10:27:51Z</time>
      </trkpt>
      <trkpt lat="45.44851" lon="4.64405">
        <ele>856.19</ele>
        <time>2017-11-14T10:28:11Z</time>
      </trkpt>
      <trkpt lat="45.44858" lon="4.64427">
        <ele>857.63</ele>
        <time>2017-11-14T10:28:31Z</time>
      </trkpt>
      <trkpt lat="45.44867" lon="4.64454">
        <ele>858.59</ele>
        <time>2017-11-14T10:28:51Z</time>
      </trkpt>
      <trkpt lat="45.44877" lon="4.64476">
        <ele>861</ele>
        <time>2017-11-14T10:29:11Z</time>
      </trkpt>
      <trkpt lat="45.44885" lon="4.64497">
        <ele>861.96</ele>
        <time>2017-11-14T10:29:31Z</time>
      </trkpt>
      <trkpt lat="45.44893" lon="4.64521">
        <ele>864.36</ele>
        <time>2017-11-14T10:29:51Z</time>
      </trkpt>
      <trkpt lat="45.44903" lon="4.64543">
        <ele>866.29</ele>
        <time>2017-11-14T10:30:11Z</time>
      </trkpt>
      <trkpt lat="45.44912" lon="4.64562">
        <ele>868.69</ele>
        <time>2017-11-14T10:30:31Z</time>
      </trkpt>
      <trkpt lat="45.44913" lon="4.64566">
        <ele>868.69</ele>
        <time>2017-11-14T10:30:51Z</time>
      </trkpt>
      <trkpt lat="45.44912" lon="4.64568">
        <ele>868.69</ele>
        <time>2017-11-14T10:31:11Z</time>
      </trkpt>
      <trkpt lat="45.44913" lon="4.64567">
        <ele>869.17</ele>
        <time>2017-11-14T10:31:31Z</time>
      </trkpt>
      <trkpt lat="45.44912" lon="4.64568">
        <ele>868.69</ele>
        <time>2017-11-14T10:31:51Z</time>
      </trkpt>
      <trkpt lat="45.44913" lon="4.64566">
        <ele>868.69</ele>
        <time>2017-11-14T10:32:11Z</time>
      </trkpt>
      <trkpt lat="45.44913" lon="4.64565">
        <ele>868.69</ele>
        <time>2017-11-14T10:32:31Z</time>
      </trkpt>
      <trkpt lat="45.44914" lon="4.64567">
        <ele>868.21</ele>
        <time>2017-11-14T10:32:51Z</time>
      </trkpt>
      <trkpt lat="45.44914" lon="4.64567">
        <ele>867.73</ele>
        <time>2017-11-14T10:33:11Z</time>
      </trkpt>
      <trkpt lat="45.44915" lon="4.64566">
        <ele>869.65</ele>
        <time>2017-11-14T10:33:31Z</time>
      </trkpt>
      <trkpt lat="45.44913" lon="4.64567">
        <ele>869.65</ele>
        <time>2017-11-14T10:33:51Z</time>
      </trkpt>
      <trkpt lat="45.44915" lon="4.64566">
        <ele>869.17</ele>
        <time>2017-11-14T10:34:11Z</time>
      </trkpt>
      <trkpt lat="45.44914" lon="4.64566">
        <ele>869.17</ele>
        <time>2017-11-14T10:34:31Z</time>
      </trkpt>
      <trkpt lat="45.44912" lon="4.64566">
        <ele>868.69</ele>
        <time>2017-11-14T10:34:51Z</time>
      </trkpt>
      <trkpt lat="45.44913" lon="4.64566">
        <ele>868.69</ele>
        <time>2017-11-14T10:35:11Z</time>
      </trkpt>
      <trkpt lat="45.44913" lon="4.64567">
        <ele>868.69</ele>
        <time>2017-11-14T10:35:31Z</time>
      </trkpt>
      <trkpt lat="45.44921" lon="4.64584">
        <ele>868.21</ele>
        <time>2017-11-14T10:35:51Z</time>
      </trkpt>
      <trkpt lat="45.44928" lon="4.64604">
        <ele>867.73</ele>
        <time>2017-11-14T10:36:11Z</time>
      </trkpt>
      <trkpt lat="45.44934" lon="4.64626">
        <ele>865.32</ele>
        <time>2017-11-14T10:36:31Z</time>
      </trkpt>
      <trkpt lat="45.44936" lon="4.64652">
        <ele>863.88</ele>
        <time>2017-11-14T10:36:51Z</time>
      </trkpt>
      <trkpt lat="45.44937" lon="4.64682">
        <ele>861.48</ele>
        <time>2017-11-14T10:37:11Z</time>
      </trkpt>
      <trkpt lat="45.44937" lon="4.64712">
        <ele>859.56</ele>
        <time>2017-11-14T10:37:31Z</time>
      </trkpt>
      <trkpt lat="45.44939" lon="4.64742">
        <ele>858.11</ele>
        <time>2017-11-14T10:37:51Z</time>
      </trkpt>
      <trkpt lat="45.44941" lon="4.64763">
        <ele>855.71</ele>
        <time>2017-11-14T10:38:11Z</time>
      </trkpt>
      <trkpt lat="45.44946" lon="4.64786">
        <ele>852.35</ele>
        <time>2017-11-14T10:38:31Z</time>
      </trkpt>
      <trkpt lat="45.44952" lon="4.64813">
        <ele>849.94</ele>
        <time>2017-11-14T10:38:51Z</time>
      </trkpt>
      <trkpt lat="45.44956" lon="4.64836">
        <ele>848.5</ele>
        <time>2017-11-14T10:39:11Z</time>
      </trkpt>
      <trkpt lat="45.44967" lon="4.64856">
        <ele>846.58</ele>
        <time>2017-11-14T10:39:31Z</time>
      </trkpt>
      <trkpt lat="45.44981" lon="4.64879">
        <ele>845.62</ele>
        <time>2017-11-14T10:39:51Z</time>
      </trkpt>
      <trkpt lat="45.44995" lon="4.64903">
        <ele>841.29</ele>
        <time>2017-11-14T10:40:11Z</time>
      </trkpt>
      <trkpt lat="45.44999" lon="4.64915">
        <ele>841.77</ele>
        <time>2017-11-14T10:40:31Z</time>
      </trkpt>
      <trkpt lat="45.45006" lon="4.64929">
        <ele>839.37</ele>
        <time>2017-11-14T10:40:51Z</time>
      </trkpt>
      <trkpt lat="45.4502" lon="4.64952">
        <ele>831.68</ele>
        <time>2017-11-14T10:41:11Z</time>
      </trkpt>
      <trkpt lat="45.45037" lon="4.64977">
        <ele>825.43</ele>
        <time>2017-11-14T10:41:31Z</time>
      </trkpt>
      <trkpt lat="45.45053" lon="4.64999">
        <ele>825.91</ele>
        <time>2017-11-14T10:41:51Z</time>
      </trkpt>
      <trkpt lat="45.45067" lon="4.65021">
        <ele>822.55</ele>
        <time>2017-11-14T10:42:11Z</time>
      </trkpt>
      <trkpt lat="45.45082" lon="4.65041">
        <ele>820.14</ele>
        <time>2017-11-14T10:42:31Z</time>
      </trkpt>
      <trkpt lat="45.45102" lon="4.65042">
        <ele>812.45</ele>
        <time>2017-11-14T10:42:51Z</time>
      </trkpt>
      <trkpt lat="45.4512" lon="4.65045">
        <ele>812.45</ele>
        <time>2017-11-14T10:43:11Z</time>
      </trkpt>
      <trkpt lat="45.45139" lon="4.65048">
        <ele>806.68</ele>
        <time>2017-11-14T10:43:31Z</time>
      </trkpt>
      <trkpt lat="45.45156" lon="4.65052">
        <ele>804.76</ele>
        <time>2017-11-14T10:43:51Z</time>
      </trkpt>
      <trkpt lat="45.45172" lon="4.65056">
        <ele>799.47</ele>
        <time>2017-11-14T10:44:11Z</time>
      </trkpt>
      <trkpt lat="45.45192" lon="4.65049">
        <ele>796.59</ele>
        <time>2017-11-14T10:44:31Z</time>
      </trkpt>
      <trkpt lat="45.45203" lon="4.65036">
        <ele>794.19</ele>
        <time>2017-11-14T10:44:51Z</time>
      </trkpt>
      <trkpt lat="45.452" lon="4.65003">
        <ele>793.71</ele>
        <time>2017-11-14T10:45:11Z</time>
      </trkpt>
      <trkpt lat="45.45206" lon="4.64986">
        <ele>792.74</ele>
        <time>2017-11-14T10:45:31Z</time>
      </trkpt>
      <trkpt lat="45.45205" lon="4.64985">
        <ele>792.74</ele>
        <time>2017-11-14T10:45:51Z</time>
      </trkpt>
      <trkpt lat="45.45206" lon="4.64984">
        <ele>792.74</ele>
        <time>2017-11-14T10:46:11Z</time>
      </trkpt>
      <trkpt lat="45.45205" lon="4.64988">
        <ele>793.22</ele>
        <time>2017-11-14T10:46:31Z</time>
      </trkpt>
      <trkpt lat="45.45205" lon="4.64987">
        <ele>792.74</ele>
        <time>2017-11-14T10:46:51Z</time>
      </trkpt>
      <trkpt lat="45.45205" lon="4.64986">
        <ele>793.71</ele>
        <time>2017-11-14T10:47:11Z</time>
      </trkpt>
      <trkpt lat="45.45208" lon="4.64981">
        <ele>793.22</ele>
        <time>2017-11-14T10:47:31Z</time>
      </trkpt>
      <trkpt lat="45.45208" lon="4.64977">
        <ele>790.82</ele>
        <time>2017-11-14T10:47:38Z</time>
      </trkpt>
      <trkpt lat="45.45207" lon="4.64988">
        <ele>800.92</ele>
        <time>2017-11-14T12:25:08Z</time>
      </trkpt>
      <trkpt lat="45.45204" lon="4.6499">
        <ele>801.4</ele>
        <time>2017-11-14T12:25:28Z</time>
      </trkpt>
      <trkpt lat="45.45205" lon="4.64991">
        <ele>801.88</ele>
        <time>2017-11-14T12:25:48Z</time>
      </trkpt>
      <trkpt lat="45.45203" lon="4.64991">
        <ele>801.88</ele>
        <time>2017-11-14T12:26:08Z</time>
      </trkpt>
      <trkpt lat="45.45204" lon="4.64991">
        <ele>801.88</ele>
        <time>2017-11-14T12:26:28Z</time>
      </trkpt>
      <trkpt lat="45.45205" lon="4.64995">
        <ele>801.88</ele>
        <time>2017-11-14T12:26:48Z</time>
      </trkpt>
      <trkpt lat="45.45206" lon="4.64992">
        <ele>802.36</ele>
        <time>2017-11-14T12:27:08Z</time>
      </trkpt>
      <trkpt lat="45.45206" lon="4.64992">
        <ele>802.84</ele>
        <time>2017-11-14T12:27:28Z</time>
      </trkpt>
      <trkpt lat="45.45212" lon="4.64998">
        <ele>800.44</ele>
        <time>2017-11-14T12:27:48Z</time>
      </trkpt>
      <trkpt lat="45.45232" lon="4.65021">
        <ele>796.11</ele>
        <time>2017-11-14T12:28:08Z</time>
      </trkpt>
      <trkpt lat="45.4525" lon="4.65048">
        <ele>792.26</ele>
        <time>2017-11-14T12:28:28Z</time>
      </trkpt>
      <trkpt lat="45.45264" lon="4.65083">
        <ele>791.78</ele>
        <time>2017-11-14T12:28:48Z</time>
      </trkpt>
      <trkpt lat="45.45279" lon="4.65116">
        <ele>789.38</ele>
        <time>2017-11-14T12:29:08Z</time>
      </trkpt>
      <trkpt lat="45.45292" lon="4.6515">
        <ele>788.9</ele>
        <time>2017-11-14T12:29:28Z</time>
      </trkpt>
      <trkpt lat="45.45302" lon="4.65183">
        <ele>784.57</ele>
        <time>2017-11-14T12:29:48Z</time>
      </trkpt>
      <trkpt lat="45.45312" lon="4.65218">
        <ele>784.57</ele>
        <time>2017-11-14T12:30:08Z</time>
      </trkpt>
      <trkpt lat="45.45316" lon="4.65257">
        <ele>782.17</ele>
        <time>2017-11-14T12:30:28Z</time>
      </trkpt>
      <trkpt lat="45.4533" lon="4.6528">
        <ele>781.69</ele>
        <time>2017-11-14T12:30:48Z</time>
      </trkpt>
      <trkpt lat="45.45335" lon="4.653">
        <ele>780.73</ele>
        <time>2017-11-14T12:31:08Z</time>
      </trkpt>
      <trkpt lat="45.45334" lon="4.6532">
        <ele>779.77</ele>
        <time>2017-11-14T12:31:28Z</time>
      </trkpt>
      <trkpt lat="45.45344" lon="4.6534">
        <ele>779.29</ele>
        <time>2017-11-14T12:31:48Z</time>
      </trkpt>
      <trkpt lat="45.45351" lon="4.65361">
        <ele>778.81</ele>
        <time>2017-11-14T12:32:08Z</time>
      </trkpt>
      <trkpt lat="45.45362" lon="4.65385">
        <ele>777.36</ele>
        <time>2017-11-14T12:32:28Z</time>
      </trkpt>
      <trkpt lat="45.45374" lon="4.65416">
        <ele>776.88</ele>
        <time>2017-11-14T12:32:48Z</time>
      </trkpt>
      <trkpt lat="45.45385" lon="4.65455">
        <ele>776.4</ele>
        <time>2017-11-14T12:33:08Z</time>
      </trkpt>
      <trkpt lat="45.45395" lon="4.65487">
        <ele>775.92</ele>
        <time>2017-11-14T12:33:28Z</time>
      </trkpt>
      <trkpt lat="45.45407" lon="4.65525">
        <ele>775.44</ele>
        <time>2017-11-14T12:33:48Z</time>
      </trkpt>
      <trkpt lat="45.45415" lon="4.65565">
        <ele>776.4</ele>
        <time>2017-11-14T12:34:08Z</time>
      </trkpt>
      <trkpt lat="45.45427" lon="4.65602">
        <ele>776.4</ele>
        <time>2017-11-14T12:34:28Z</time>
      </trkpt>
      <trkpt lat="45.45436" lon="4.65637">
        <ele>775.44</ele>
        <time>2017-11-14T12:34:48Z</time>
      </trkpt>
      <trkpt lat="45.45436" lon="4.65675">
        <ele>775.44</ele>
        <time>2017-11-14T12:35:08Z</time>
      </trkpt>
      <trkpt lat="45.45433" lon="4.65705">
        <ele>773.52</ele>
        <time>2017-11-14T12:35:28Z</time>
      </trkpt>
      <trkpt lat="45.45423" lon="4.65743">
        <ele>772.56</ele>
        <time>2017-11-14T12:35:48Z</time>
      </trkpt>
      <trkpt lat="45.454" lon="4.65771">
        <ele>770.63</ele>
        <time>2017-11-14T12:36:08Z</time>
      </trkpt>
      <trkpt lat="45.45387" lon="4.65796">
        <ele>769.19</ele>
        <time>2017-11-14T12:36:28Z</time>
      </trkpt>
      <trkpt lat="45.4538" lon="4.65831">
        <ele>768.71</ele>
        <time>2017-11-14T12:36:48Z</time>
      </trkpt>
      <trkpt lat="45.45385" lon="4.6586">
        <ele>768.23</ele>
        <time>2017-11-14T12:37:08Z</time>
      </trkpt>
      <trkpt lat="45.45391" lon="4.65891">
        <ele>768.23</ele>
        <time>2017-11-14T12:37:28Z</time>
      </trkpt>
      <trkpt lat="45.45402" lon="4.65927">
        <ele>768.23</ele>
        <time>2017-11-14T12:37:48Z</time>
      </trkpt>
      <trkpt lat="45.45389" lon="4.65931">
        <ele>771.6</ele>
        <time>2017-11-14T12:38:08Z</time>
      </trkpt>
      <trkpt lat="45.45375" lon="4.65938">
        <ele>773.52</ele>
        <time>2017-11-14T12:38:28Z</time>
      </trkpt>
      <trkpt lat="45.45361" lon="4.65936">
        <ele>775.44</ele>
        <time>2017-11-14T12:38:48Z</time>
      </trkpt>
      <trkpt lat="45.45351" lon="4.65936">
        <ele>779.29</ele>
        <time>2017-11-14T12:39:08Z</time>
      </trkpt>
      <trkpt lat="45.45338" lon="4.65948">
        <ele>780.73</ele>
        <time>2017-11-14T12:39:28Z</time>
      </trkpt>
      <trkpt lat="45.45327" lon="4.65959">
        <ele>783.61</ele>
        <time>2017-11-14T12:39:48Z</time>
      </trkpt>
      <trkpt lat="45.45317" lon="4.65964">
        <ele>786.5</ele>
        <time>2017-11-14T12:40:08Z</time>
      </trkpt>
      <trkpt lat="45.45301" lon="4.65977">
        <ele>788.42</ele>
        <time>2017-11-14T12:40:28Z</time>
      </trkpt>
      <trkpt lat="45.45294" lon="4.65984">
        <ele>789.86</ele>
        <time>2017-11-14T12:40:48Z</time>
      </trkpt>
      <trkpt lat="45.45287" lon="4.65993">
        <ele>791.78</ele>
        <time>2017-11-14T12:41:08Z</time>
      </trkpt>
      <trkpt lat="45.45278" lon="4.66001">
        <ele>793.71</ele>
        <time>2017-11-14T12:41:28Z</time>
      </trkpt>
      <trkpt lat="45.45266" lon="4.66008">
        <ele>796.59</ele>
        <time>2017-11-14T12:41:48Z</time>
      </trkpt>
      <trkpt lat="45.45253" lon="4.66022">
        <ele>798.99</ele>
        <time>2017-11-14T12:42:08Z</time>
      </trkpt>
      <trkpt lat="45.45245" lon="4.66025">
        <ele>799.95</ele>
        <time>2017-11-14T12:42:28Z</time>
      </trkpt>
      <trkpt lat="45.45237" lon="4.6603">
        <ele>803.32</ele>
        <time>2017-11-14T12:42:48Z</time>
      </trkpt>
      <trkpt lat="45.45228" lon="4.66038">
        <ele>805.72</ele>
        <time>2017-11-14T12:43:08Z</time>
      </trkpt>
      <trkpt lat="45.45218" lon="4.66037">
        <ele>809.09</ele>
        <time>2017-11-14T12:43:28Z</time>
      </trkpt>
      <trkpt lat="45.45214" lon="4.66049">
        <ele>811.49</ele>
        <time>2017-11-14T12:43:48Z</time>
      </trkpt>
      <trkpt lat="45.45209" lon="4.66063">
        <ele>815.34</ele>
        <time>2017-11-14T12:44:08Z</time>
      </trkpt>
      <trkpt lat="45.45203" lon="4.66076">
        <ele>816.78</ele>
        <time>2017-11-14T12:44:28Z</time>
      </trkpt>
      <trkpt lat="45.45198" lon="4.66087">
        <ele>819.18</ele>
        <time>2017-11-14T12:44:48Z</time>
      </trkpt>
      <trkpt lat="45.45186" lon="4.66084">
        <ele>822.55</ele>
        <time>2017-11-14T12:45:08Z</time>
      </trkpt>
      <trkpt lat="45.4517" lon="4.66085">
        <ele>824.47</ele>
        <time>2017-11-14T12:45:28Z</time>
      </trkpt>
      <trkpt lat="45.45156" lon="4.66082">
        <ele>826.87</ele>
        <time>2017-11-14T12:45:48Z</time>
      </trkpt>
      <trkpt lat="45.45145" lon="4.66079">
        <ele>829.76</ele>
        <time>2017-11-14T12:46:08Z</time>
      </trkpt>
      <trkpt lat="45.4513" lon="4.66085">
        <ele>831.68</ele>
        <time>2017-11-14T12:46:28Z</time>
      </trkpt>
      <trkpt lat="45.4512" lon="4.66098">
        <ele>834.56</ele>
        <time>2017-11-14T12:46:48Z</time>
      </trkpt>
      <trkpt lat="45.4511" lon="4.66098">
        <ele>837.45</ele>
        <time>2017-11-14T12:47:08Z</time>
      </trkpt>
      <trkpt lat="45.45099" lon="4.66107">
        <ele>840.33</ele>
        <time>2017-11-14T12:47:28Z</time>
      </trkpt>
      <trkpt lat="45.45089" lon="4.66111">
        <ele>843.69</ele>
        <time>2017-11-14T12:47:48Z</time>
      </trkpt>
      <trkpt lat="45.45077" lon="4.66113">
        <ele>845.62</ele>
        <time>2017-11-14T12:48:08Z</time>
      </trkpt>
      <trkpt lat="45.45069" lon="4.66119">
        <ele>849.46</ele>
        <time>2017-11-14T12:48:28Z</time>
      </trkpt>
      <trkpt lat="45.45052" lon="4.66123">
        <ele>852.35</ele>
        <time>2017-11-14T12:48:48Z</time>
      </trkpt>
      <trkpt lat="45.45043" lon="4.66134">
        <ele>855.23</ele>
        <time>2017-11-14T12:49:08Z</time>
      </trkpt>
      <trkpt lat="45.45036" lon="4.66134">
        <ele>858.11</ele>
        <time>2017-11-14T12:49:28Z</time>
      </trkpt>
      <trkpt lat="45.45023" lon="4.6614">
        <ele>860.04</ele>
        <time>2017-11-14T12:49:48Z</time>
      </trkpt>
      <trkpt lat="45.45014" lon="4.66147">
        <ele>862.92</ele>
        <time>2017-11-14T12:50:08Z</time>
      </trkpt>
      <trkpt lat="45.45001" lon="4.66149">
        <ele>865.8</ele>
        <time>2017-11-14T12:50:28Z</time>
      </trkpt>
      <trkpt lat="45.44991" lon="4.66154">
        <ele>867.25</ele>
        <time>2017-11-14T12:50:48Z</time>
      </trkpt>
      <trkpt lat="45.44982" lon="4.66166">
        <ele>870.61</ele>
        <time>2017-11-14T12:51:08Z</time>
      </trkpt>
      <trkpt lat="45.4498" lon="4.66175">
        <ele>870.13</ele>
        <time>2017-11-14T12:51:28Z</time>
      </trkpt>
      <trkpt lat="45.44981" lon="4.66181">
        <ele>871.09</ele>
        <time>2017-11-14T12:51:48Z</time>
      </trkpt>
      <trkpt lat="45.44976" lon="4.66173">
        <ele>870.61</ele>
        <time>2017-11-14T12:52:08Z</time>
      </trkpt>
      <trkpt lat="45.44968" lon="4.66178">
        <ele>870.61</ele>
        <time>2017-11-14T12:52:28Z</time>
      </trkpt>
      <trkpt lat="45.44964" lon="4.6618">
        <ele>870.61</ele>
        <time>2017-11-14T12:52:48Z</time>
      </trkpt>
      <trkpt lat="45.44965" lon="4.66177">
        <ele>870.61</ele>
        <time>2017-11-14T12:53:08Z</time>
      </trkpt>
      <trkpt lat="45.44959" lon="4.66178">
        <ele>872.05</ele>
        <time>2017-11-14T12:53:28Z</time>
      </trkpt>
      <trkpt lat="45.44949" lon="4.66169">
        <ele>872.53</ele>
        <time>2017-11-14T12:53:48Z</time>
      </trkpt>
      <trkpt lat="45.44939" lon="4.6615">
        <ele>874.46</ele>
        <time>2017-11-14T12:54:08Z</time>
      </trkpt>
      <trkpt lat="45.44931" lon="4.66126">
        <ele>874.46</ele>
        <time>2017-11-14T12:54:28Z</time>
      </trkpt>
      <trkpt lat="45.44926" lon="4.66107">
        <ele>873.5</ele>
        <time>2017-11-14T12:54:48Z</time>
      </trkpt>
      <trkpt lat="45.44924" lon="4.66076">
        <ele>873.01</ele>
        <time>2017-11-14T12:55:08Z</time>
      </trkpt>
      <trkpt lat="45.44913" lon="4.66054">
        <ele>873.01</ele>
        <time>2017-11-14T12:55:28Z</time>
      </trkpt>
      <trkpt lat="45.44904" lon="4.66034">
        <ele>872.05</ele>
        <time>2017-11-14T12:55:48Z</time>
      </trkpt>
      <trkpt lat="45.44893" lon="4.6602">
        <ele>870.61</ele>
        <time>2017-11-14T12:56:08Z</time>
      </trkpt>
      <trkpt lat="45.44881" lon="4.66025">
        <ele>873.98</ele>
        <time>2017-11-14T12:56:28Z</time>
      </trkpt>
      <trkpt lat="45.44864" lon="4.66032">
        <ele>874.46</ele>
        <time>2017-11-14T12:56:48Z</time>
      </trkpt>
      <trkpt lat="45.44854" lon="4.66033">
        <ele>874.94</ele>
        <time>2017-11-14T12:57:08Z</time>
      </trkpt>
      <trkpt lat="45.44851" lon="4.66035">
        <ele>874.94</ele>
        <time>2017-11-14T12:57:28Z</time>
      </trkpt>
      <trkpt lat="45.44851" lon="4.66026">
        <ele>872.53</ele>
        <time>2017-11-14T12:57:48Z</time>
      </trkpt>
      <trkpt lat="45.44848" lon="4.66025">
        <ele>872.05</ele>
        <time>2017-11-14T12:58:08Z</time>
      </trkpt>
      <trkpt lat="45.44847" lon="4.66023">
        <ele>870.61</ele>
        <time>2017-11-14T12:58:28Z</time>
      </trkpt>
      <trkpt lat="45.44841" lon="4.66018">
        <ele>868.21</ele>
        <time>2017-11-14T12:58:48Z</time>
      </trkpt>
      <trkpt lat="45.4484" lon="4.66009">
        <ele>866.29</ele>
        <time>2017-11-14T12:59:08Z</time>
      </trkpt>
      <trkpt lat="45.44836" lon="4.65997">
        <ele>862.92</ele>
        <time>2017-11-14T12:59:28Z</time>
      </trkpt>
      <trkpt lat="45.44831" lon="4.6599">
        <ele>860.52</ele>
        <time>2017-11-14T12:59:48Z</time>
      </trkpt>
      <trkpt lat="45.44822" lon="4.65988">
        <ele>857.15</ele>
        <time>2017-11-14T13:00:08Z</time>
      </trkpt>
      <trkpt lat="45.44818" lon="4.65982">
        <ele>855.23</ele>
        <time>2017-11-14T13:00:28Z</time>
      </trkpt>
      <trkpt lat="45.44818" lon="4.65964">
        <ele>852.83</ele>
        <time>2017-11-14T13:00:48Z</time>
      </trkpt>
      <trkpt lat="45.44819" lon="4.65951">
        <ele>850.9</ele>
        <time>2017-11-14T13:01:08Z</time>
      </trkpt>
      <trkpt lat="45.44809" lon="4.6595">
        <ele>848.5</ele>
        <time>2017-11-14T13:01:28Z</time>
      </trkpt>
      <trkpt lat="45.448" lon="4.65946">
        <ele>845.14</ele>
        <time>2017-11-14T13:01:48Z</time>
      </trkpt>
      <trkpt lat="45.44789" lon="4.65941">
        <ele>843.21</ele>
        <time>2017-11-14T13:02:08Z</time>
      </trkpt>
      <trkpt lat="45.4478" lon="4.65947">
        <ele>839.37</ele>
        <time>2017-11-14T13:02:28Z</time>
      </trkpt>
      <trkpt lat="45.44776" lon="4.65967">
        <ele>836.96</ele>
        <time>2017-11-14T13:02:48Z</time>
      </trkpt>
      <trkpt lat="45.44768" lon="4.6599">
        <ele>834.08</ele>
        <time>2017-11-14T13:03:08Z</time>
      </trkpt>
      <trkpt lat="45.44761" lon="4.66014">
        <ele>832.16</ele>
        <time>2017-11-14T13:03:28Z</time>
      </trkpt>
      <trkpt lat="45.44751" lon="4.66039">
        <ele>830.72</ele>
        <time>2017-11-14T13:03:48Z</time>
      </trkpt>
      <trkpt lat="45.4475" lon="4.6607">
        <ele>830.72</ele>
        <time>2017-11-14T13:04:08Z</time>
      </trkpt>
      <trkpt lat="45.44747" lon="4.66092">
        <ele>829.27</ele>
        <time>2017-11-14T13:04:28Z</time>
      </trkpt>
      <trkpt lat="45.44743" lon="4.6611">
        <ele>825.91</ele>
        <time>2017-11-14T13:04:48Z</time>
      </trkpt>
      <trkpt lat="45.44738" lon="4.66129">
        <ele>823.03</ele>
        <time>2017-11-14T13:05:08Z</time>
      </trkpt>
      <trkpt lat="45.44732" lon="4.6615">
        <ele>818.7</ele>
        <time>2017-11-14T13:05:28Z</time>
      </trkpt>
      <trkpt lat="45.44721" lon="4.66169">
        <ele>814.85</ele>
        <time>2017-11-14T13:05:48Z</time>
      </trkpt>
      <trkpt lat="45.44711" lon="4.66184">
        <ele>811.97</ele>
        <time>2017-11-14T13:06:08Z</time>
      </trkpt>
      <trkpt lat="45.447" lon="4.66212">
        <ele>809.09</ele>
        <time>2017-11-14T13:06:28Z</time>
      </trkpt>
      <trkpt lat="45.44697" lon="4.6624">
        <ele>805.24</ele>
        <time>2017-11-14T13:06:48Z</time>
      </trkpt>
      <trkpt lat="45.44693" lon="4.66267">
        <ele>802.84</ele>
        <time>2017-11-14T13:07:08Z</time>
      </trkpt>
      <trkpt lat="45.44688" lon="4.66287">
        <ele>799.95</ele>
        <time>2017-11-14T13:07:28Z</time>
      </trkpt>
      <trkpt lat="45.44687" lon="4.66317">
        <ele>796.11</ele>
        <time>2017-11-14T13:07:48Z</time>
      </trkpt>
      <trkpt lat="45.44688" lon="4.66355">
        <ele>794.19</ele>
        <time>2017-11-14T13:08:08Z</time>
      </trkpt>
      <trkpt lat="45.44694" lon="4.66383">
        <ele>792.26</ele>
        <time>2017-11-14T13:08:28Z</time>
      </trkpt>
      <trkpt lat="45.44694" lon="4.66413">
        <ele>790.34</ele>
        <time>2017-11-14T13:08:48Z</time>
      </trkpt>
      <trkpt lat="45.44693" lon="4.66418">
        <ele>789.86</ele>
        <time>2017-11-14T13:09:08Z</time>
      </trkpt>
      <trkpt lat="45.44692" lon="4.66422">
        <ele>789.38</ele>
        <time>2017-11-14T13:09:28Z</time>
      </trkpt>
      <trkpt lat="45.44691" lon="4.66423">
        <ele>788.9</ele>
        <time>2017-11-14T13:09:48Z</time>
      </trkpt>
      <trkpt lat="45.44694" lon="4.66421">
        <ele>789.38</ele>
        <time>2017-11-14T13:10:08Z</time>
      </trkpt>
      <trkpt lat="45.4469" lon="4.66432">
        <ele>788.42</ele>
        <time>2017-11-14T13:10:28Z</time>
      </trkpt>
      <trkpt lat="45.4469" lon="4.66456">
        <ele>786.5</ele>
        <time>2017-11-14T13:10:48Z</time>
      </trkpt>
      <trkpt lat="45.44693" lon="4.66484">
        <ele>783.13</ele>
        <time>2017-11-14T13:11:08Z</time>
      </trkpt>
      <trkpt lat="45.44694" lon="4.66513">
        <ele>780.25</ele>
        <time>2017-11-14T13:11:28Z</time>
      </trkpt>
      <trkpt lat="45.44694" lon="4.66544">
        <ele>777.36</ele>
        <time>2017-11-14T13:11:48Z</time>
      </trkpt>
      <trkpt lat="45.44698" lon="4.66573">
        <ele>773.04</ele>
        <time>2017-11-14T13:12:08Z</time>
      </trkpt>
      <trkpt lat="45.44699" lon="4.66606">
        <ele>768.71</ele>
        <time>2017-11-14T13:12:28Z</time>
      </trkpt>
      <trkpt lat="45.44705" lon="4.66636">
        <ele>769.19</ele>
        <time>2017-11-14T13:12:48Z</time>
      </trkpt>
      <trkpt lat="45.44715" lon="4.66663">
        <ele>768.23</ele>
        <time>2017-11-14T13:13:08Z</time>
      </trkpt>
      <trkpt lat="45.44724" lon="4.66695">
        <ele>767.27</ele>
        <time>2017-11-14T13:13:28Z</time>
      </trkpt>
      <trkpt lat="45.44735" lon="4.66722">
        <ele>765.35</ele>
        <time>2017-11-14T13:13:48Z</time>
      </trkpt>
      <trkpt lat="45.44752" lon="4.66751">
        <ele>765.35</ele>
        <time>2017-11-14T13:14:08Z</time>
      </trkpt>
      <trkpt lat="45.44771" lon="4.66774">
        <ele>765.35</ele>
        <time>2017-11-14T13:14:28Z</time>
      </trkpt>
      <trkpt lat="45.44789" lon="4.66798">
        <ele>766.31</ele>
        <time>2017-11-14T13:14:48Z</time>
      </trkpt>
      <trkpt lat="45.44807" lon="4.66814">
        <ele>766.31</ele>
        <time>2017-11-14T13:15:08Z</time>
      </trkpt>
      <trkpt lat="45.44826" lon="4.66831">
        <ele>767.75</ele>
        <time>2017-11-14T13:15:28Z</time>
      </trkpt>
      <trkpt lat="45.44846" lon="4.6685">
        <ele>767.75</ele>
        <time>2017-11-14T13:15:48Z</time>
      </trkpt>
      <trkpt lat="45.44867" lon="4.66868">
        <ele>769.19</ele>
        <time>2017-11-14T13:16:08Z</time>
      </trkpt>
      <trkpt lat="45.44878" lon="4.6689">
        <ele>769.19</ele>
        <time>2017-11-14T13:16:28Z</time>
      </trkpt>
      <trkpt lat="45.44887" lon="4.66918">
        <ele>770.15</ele>
        <time>2017-11-14T13:16:48Z</time>
      </trkpt>
      <trkpt lat="45.44898" lon="4.66942">
        <ele>771.6</ele>
        <time>2017-11-14T13:17:08Z</time>
      </trkpt>
      <trkpt lat="45.4491" lon="4.66969">
        <ele>773.04</ele>
        <time>2017-11-14T13:17:28Z</time>
      </trkpt>
      <trkpt lat="45.44917" lon="4.66998">
        <ele>773.52</ele>
        <time>2017-11-14T13:17:48Z</time>
      </trkpt>
      <trkpt lat="45.44931" lon="4.67022">
        <ele>773.52</ele>
        <time>2017-11-14T13:18:08Z</time>
      </trkpt>
      <trkpt lat="45.44946" lon="4.67046">
        <ele>774.96</ele>
        <time>2017-11-14T13:18:28Z</time>
      </trkpt>
      <trkpt lat="45.44956" lon="4.67073">
        <ele>773.52</ele>
        <time>2017-11-14T13:18:48Z</time>
      </trkpt>
      <trkpt lat="45.44965" lon="4.67102">
        <ele>774.48</ele>
        <time>2017-11-14T13:19:08Z</time>
      </trkpt>
      <trkpt lat="45.44972" lon="4.67132">
        <ele>775.44</ele>
        <time>2017-11-14T13:19:28Z</time>
      </trkpt>
      <trkpt lat="45.4498" lon="4.67165">
        <ele>775.92</ele>
        <time>2017-11-14T13:19:48Z</time>
      </trkpt>
      <trkpt lat="45.44994" lon="4.67199">
        <ele>775.92</ele>
        <time>2017-11-14T13:20:08Z</time>
      </trkpt>
      <trkpt lat="45.45005" lon="4.67228">
        <ele>776.4</ele>
        <time>2017-11-14T13:20:28Z</time>
      </trkpt>
      <trkpt lat="45.45016" lon="4.67256">
        <ele>776.88</ele>
        <time>2017-11-14T13:20:48Z</time>
      </trkpt>
      <trkpt lat="45.45028" lon="4.67285">
        <ele>777.36</ele>
        <time>2017-11-14T13:21:08Z</time>
      </trkpt>
      <trkpt lat="45.45042" lon="4.67314">
        <ele>778.32</ele>
        <time>2017-11-14T13:21:28Z</time>
      </trkpt>
      <trkpt lat="45.45055" lon="4.67343">
        <ele>777.36</ele>
        <time>2017-11-14T13:21:48Z</time>
      </trkpt>
      <trkpt lat="45.4507" lon="4.67374">
        <ele>778.32</ele>
        <time>2017-11-14T13:22:08Z</time>
      </trkpt>
      <trkpt lat="45.45081" lon="4.67403">
        <ele>778.81</ele>
        <time>2017-11-14T13:22:28Z</time>
      </trkpt>
      <trkpt lat="45.45096" lon="4.6743">
        <ele>778.32</ele>
        <time>2017-11-14T13:22:48Z</time>
      </trkpt>
      <trkpt lat="45.4511" lon="4.67456">
        <ele>779.29</ele>
        <time>2017-11-14T13:23:08Z</time>
      </trkpt>
      <trkpt lat="45.45125" lon="4.67481">
        <ele>779.29</ele>
        <time>2017-11-14T13:23:28Z</time>
      </trkpt>
      <trkpt lat="45.45131" lon="4.67491">
        <ele>779.29</ele>
        <time>2017-11-14T13:23:48Z</time>
      </trkpt>
      <trkpt lat="45.45137" lon="4.67503">
        <ele>781.21</ele>
        <time>2017-11-14T13:24:08Z</time>
      </trkpt>
      <trkpt lat="45.45153" lon="4.67526">
        <ele>781.69</ele>
        <time>2017-11-14T13:24:28Z</time>
      </trkpt>
      <trkpt lat="45.45171" lon="4.67549">
        <ele>782.17</ele>
        <time>2017-11-14T13:24:48Z</time>
      </trkpt>
      <trkpt lat="45.45189" lon="4.67572">
        <ele>782.17</ele>
        <time>2017-11-14T13:25:08Z</time>
      </trkpt>
      <trkpt lat="45.45209" lon="4.67592">
        <ele>780.73</ele>
        <time>2017-11-14T13:25:28Z</time>
      </trkpt>
      <trkpt lat="45.4523" lon="4.67602">
        <ele>781.21</ele>
        <time>2017-11-14T13:25:48Z</time>
      </trkpt>
      <trkpt lat="45.45249" lon="4.67619">
        <ele>781.21</ele>
        <time>2017-11-14T13:26:08Z</time>
      </trkpt>
      <trkpt lat="45.45271" lon="4.67633">
        <ele>782.17</ele>
        <time>2017-11-14T13:26:28Z</time>
      </trkpt>
      <trkpt lat="45.45292" lon="4.6764">
        <ele>781.21</ele>
        <time>2017-11-14T13:26:48Z</time>
      </trkpt>
      <trkpt lat="45.45313" lon="4.67637">
        <ele>781.69</ele>
        <time>2017-11-14T13:27:08Z</time>
      </trkpt>
      <trkpt lat="45.45336" lon="4.67632">
        <ele>781.69</ele>
        <time>2017-11-14T13:27:28Z</time>
      </trkpt>
      <trkpt lat="45.4536" lon="4.67627">
        <ele>779.77</ele>
        <time>2017-11-14T13:27:48Z</time>
      </trkpt>
      <trkpt lat="45.45383" lon="4.67625">
        <ele>778.81</ele>
        <time>2017-11-14T13:28:08Z</time>
      </trkpt>
      <trkpt lat="45.45403" lon="4.67628">
        <ele>777.84</ele>
        <time>2017-11-14T13:28:28Z</time>
      </trkpt>
      <trkpt lat="45.45426" lon="4.67634">
        <ele>777.84</ele>
        <time>2017-11-14T13:28:48Z</time>
      </trkpt>
      <trkpt lat="45.45445" lon="4.67651">
        <ele>776.4</ele>
        <time>2017-11-14T13:29:08Z</time>
      </trkpt>
      <trkpt lat="45.45469" lon="4.67673">
        <ele>775.92</ele>
        <time>2017-11-14T13:29:28Z</time>
      </trkpt>
      <trkpt lat="45.45491" lon="4.67697">
        <ele>775.44</ele>
        <time>2017-11-14T13:29:48Z</time>
      </trkpt>
      <trkpt lat="45.45513" lon="4.67715">
        <ele>775.44</ele>
        <time>2017-11-14T13:30:08Z</time>
      </trkpt>
      <trkpt lat="45.45517" lon="4.67724">
        <ele>773.04</ele>
        <time>2017-11-14T13:30:28Z</time>
      </trkpt>
      <trkpt lat="45.45495" lon="4.67718">
        <ele>769.19</ele>
        <time>2017-11-14T13:30:48Z</time>
      </trkpt>
      <trkpt lat="45.45498" lon="4.67733">
        <ele>767.27</ele>
        <time>2017-11-14T13:31:08Z</time>
      </trkpt>
      <trkpt lat="45.45513" lon="4.67757">
        <ele>766.31</ele>
        <time>2017-11-14T13:31:28Z</time>
      </trkpt>
      <trkpt lat="45.45529" lon="4.67777">
        <ele>764.87</ele>
        <time>2017-11-14T13:31:48Z</time>
      </trkpt>
      <trkpt lat="45.45548" lon="4.67799">
        <ele>761.02</ele>
        <time>2017-11-14T13:32:08Z</time>
      </trkpt>
      <trkpt lat="45.45563" lon="4.67822">
        <ele>758.14</ele>
        <time>2017-11-14T13:32:28Z</time>
      </trkpt>
      <trkpt lat="45.4557" lon="4.6784">
        <ele>754.77</ele>
        <time>2017-11-14T13:32:48Z</time>
      </trkpt>
      <trkpt lat="45.45554" lon="4.67838">
        <ele>750.93</ele>
        <time>2017-11-14T13:33:08Z</time>
      </trkpt>
      <trkpt lat="45.45533" lon="4.67832">
        <ele>749.49</ele>
        <time>2017-11-14T13:33:28Z</time>
      </trkpt>
      <trkpt lat="45.45512" lon="4.67827">
        <ele>747.56</ele>
        <time>2017-11-14T13:33:48Z</time>
      </trkpt>
      <trkpt lat="45.45498" lon="4.67823">
        <ele>747.08</ele>
        <time>2017-11-14T13:34:08Z</time>
      </trkpt>
      <trkpt lat="45.45485" lon="4.67833">
        <ele>743.72</ele>
        <time>2017-11-14T13:34:28Z</time>
      </trkpt>
      <trkpt lat="45.45471" lon="4.67837">
        <ele>740.35</ele>
        <time>2017-11-14T13:34:48Z</time>
      </trkpt>
      <trkpt lat="45.45456" lon="4.67843">
        <ele>737.47</ele>
        <time>2017-11-14T13:35:08Z</time>
      </trkpt>
      <trkpt lat="45.4544" lon="4.67837">
        <ele>733.14</ele>
        <time>2017-11-14T13:35:28Z</time>
      </trkpt>
      <trkpt lat="45.4543" lon="4.67831">
        <ele>731.7</ele>
        <time>2017-11-14T13:35:48Z</time>
      </trkpt>
      <trkpt lat="45.4543" lon="4.67836">
        <ele>730.74</ele>
        <time>2017-11-14T13:36:08Z</time>
      </trkpt>
      <trkpt lat="45.45433" lon="4.67838">
        <ele>731.7</ele>
        <time>2017-11-14T13:36:28Z</time>
      </trkpt>
      <trkpt lat="45.45436" lon="4.67836">
        <ele>732.18</ele>
        <time>2017-11-14T13:36:48Z</time>
      </trkpt>
      <trkpt lat="45.45438" lon="4.67835">
        <ele>731.7</ele>
        <time>2017-11-14T13:37:08Z</time>
      </trkpt>
      <trkpt lat="45.45436" lon="4.67833">
        <ele>731.7</ele>
        <time>2017-11-14T13:37:28Z</time>
      </trkpt>
      <trkpt lat="45.45433" lon="4.67838">
        <ele>731.22</ele>
        <time>2017-11-14T13:37:48Z</time>
      </trkpt>
      <trkpt lat="45.45433" lon="4.67849">
        <ele>729.3</ele>
        <time>2017-11-14T13:38:08Z</time>
      </trkpt>
      <trkpt lat="45.45436" lon="4.67861">
        <ele>726.89</ele>
        <time>2017-11-14T13:38:28Z</time>
      </trkpt>
      <trkpt lat="45.45441" lon="4.67875">
        <ele>724.97</ele>
        <time>2017-11-14T13:38:48Z</time>
      </trkpt>
      <trkpt lat="45.45448" lon="4.67891">
        <ele>721.61</ele>
        <time>2017-11-14T13:39:08Z</time>
      </trkpt>
      <trkpt lat="45.45455" lon="4.67903">
        <ele>718.24</ele>
        <time>2017-11-14T13:39:28Z</time>
      </trkpt>
      <trkpt lat="45.45467" lon="4.67915">
        <ele>716.32</ele>
        <time>2017-11-14T13:39:48Z</time>
      </trkpt>
      <trkpt lat="45.45484" lon="4.6792">
        <ele>714.88</ele>
        <time>2017-11-14T13:40:08Z</time>
      </trkpt>
      <trkpt lat="45.45511" lon="4.67931">
        <ele>713.92</ele>
        <time>2017-11-14T13:40:28Z</time>
      </trkpt>
      <trkpt lat="45.45531" lon="4.67946">
        <ele>712.95</ele>
        <time>2017-11-14T13:40:48Z</time>
      </trkpt>
      <trkpt lat="45.45546" lon="4.67962">
        <ele>709.59</ele>
        <time>2017-11-14T13:41:08Z</time>
      </trkpt>
      <trkpt lat="45.45562" lon="4.6798">
        <ele>708.63</ele>
        <time>2017-11-14T13:41:28Z</time>
      </trkpt>
      <trkpt lat="45.45576" lon="4.68">
        <ele>705.75</ele>
        <time>2017-11-14T13:41:48Z</time>
      </trkpt>
      <trkpt lat="45.45589" lon="4.68024">
        <ele>704.78</ele>
        <time>2017-11-14T13:42:08Z</time>
      </trkpt>
      <trkpt lat="45.45601" lon="4.68047">
        <ele>702.86</ele>
        <time>2017-11-14T13:42:28Z</time>
      </trkpt>
      <trkpt lat="45.45615" lon="4.68062">
        <ele>701.9</ele>
        <time>2017-11-14T13:42:48Z</time>
      </trkpt>
      <trkpt lat="45.45631" lon="4.68078">
        <ele>699.02</ele>
        <time>2017-11-14T13:43:08Z</time>
      </trkpt>
      <trkpt lat="45.45653" lon="4.68099">
        <ele>697.57</ele>
        <time>2017-11-14T13:43:28Z</time>
      </trkpt>
      <trkpt lat="45.45668" lon="4.68124">
        <ele>695.17</ele>
        <time>2017-11-14T13:43:48Z</time>
      </trkpt>
      <trkpt lat="45.45684" lon="4.68145">
        <ele>693.25</ele>
        <time>2017-11-14T13:44:08Z</time>
      </trkpt>
      <trkpt lat="45.45701" lon="4.68161">
        <ele>690.36</ele>
        <time>2017-11-14T13:44:28Z</time>
      </trkpt>
      <trkpt lat="45.45721" lon="4.68177">
        <ele>688.44</ele>
        <time>2017-11-14T13:44:48Z</time>
      </trkpt>
      <trkpt lat="45.4574" lon="4.68191">
        <ele>686.04</ele>
        <time>2017-11-14T13:45:08Z</time>
      </trkpt>
      <trkpt lat="45.45757" lon="4.68205">
        <ele>682.19</ele>
        <time>2017-11-14T13:45:28Z</time>
      </trkpt>
      <trkpt lat="45.45782" lon="4.68212">
        <ele>682.19</ele>
        <time>2017-11-14T13:45:48Z</time>
      </trkpt>
      <trkpt lat="45.458" lon="4.68217">
        <ele>681.71</ele>
        <time>2017-11-14T13:46:08Z</time>
      </trkpt>
      <trkpt lat="45.45824" lon="4.68215">
        <ele>680.27</ele>
        <time>2017-11-14T13:46:28Z</time>
      </trkpt>
      <trkpt lat="45.45853" lon="4.68216">
        <ele>679.31</ele>
        <time>2017-11-14T13:46:48Z</time>
      </trkpt>
      <trkpt lat="45.45877" lon="4.6822">
        <ele>676.42</ele>
        <time>2017-11-14T13:47:08Z</time>
      </trkpt>
      <trkpt lat="45.45899" lon="4.68219">
        <ele>677.39</ele>
        <time>2017-11-14T13:47:28Z</time>
      </trkpt>
      <trkpt lat="45.45925" lon="4.68214">
        <ele>678.35</ele>
        <time>2017-11-14T13:47:48Z</time>
      </trkpt>
      <trkpt lat="45.45944" lon="4.68213">
        <ele>674.5</ele>
        <time>2017-11-14T13:48:08Z</time>
      </trkpt>
      <trkpt lat="45.4597" lon="4.6821">
        <ele>669.22</ele>
        <time>2017-11-14T13:48:28Z</time>
      </trkpt>
      <trkpt lat="45.45989" lon="4.68199">
        <ele>672.1</ele>
        <time>2017-11-14T13:48:48Z</time>
      </trkpt>
      <trkpt lat="45.46006" lon="4.6819">
        <ele>672.1</ele>
        <time>2017-11-14T13:49:08Z</time>
      </trkpt>
      <trkpt lat="45.46035" lon="4.68177">
        <ele>672.1</ele>
        <time>2017-11-14T13:49:28Z</time>
      </trkpt>
      <trkpt lat="45.46054" lon="4.68165">
        <ele>671.14</ele>
        <time>2017-11-14T13:49:48Z</time>
      </trkpt>
      <trkpt lat="45.4607" lon="4.68151">
        <ele>674.5</ele>
        <time>2017-11-14T13:50:08Z</time>
      </trkpt>
      <trkpt lat="45.46084" lon="4.68136">
        <ele>674.98</ele>
        <time>2017-11-14T13:50:28Z</time>
      </trkpt>
      <trkpt lat="45.46097" lon="4.68117">
        <ele>675.94</ele>
        <time>2017-11-14T13:50:48Z</time>
      </trkpt>
      <trkpt lat="45.46111" lon="4.68098">
        <ele>676.91</ele>
        <time>2017-11-14T13:51:08Z</time>
      </trkpt>
      <trkpt lat="45.46126" lon="4.68083">
        <ele>676.91</ele>
        <time>2017-11-14T13:51:28Z</time>
      </trkpt>
      <trkpt lat="45.46141" lon="4.68067">
        <ele>673.54</ele>
        <time>2017-11-14T13:51:48Z</time>
      </trkpt>
      <trkpt lat="45.46158" lon="4.68048">
        <ele>672.58</ele>
        <time>2017-11-14T13:52:08Z</time>
      </trkpt>
      <trkpt lat="45.46173" lon="4.68024">
        <ele>670.18</ele>
        <time>2017-11-14T13:52:28Z</time>
      </trkpt>
      <trkpt lat="45.46193" lon="4.68">
        <ele>668.73</ele>
        <time>2017-11-14T13:52:48Z</time>
      </trkpt>
      <trkpt lat="45.46213" lon="4.67981">
        <ele>668.73</ele>
        <time>2017-11-14T13:53:08Z</time>
      </trkpt>
      <trkpt lat="45.46232" lon="4.67974">
        <ele>669.22</ele>
        <time>2017-11-14T13:53:28Z</time>
      </trkpt>
      <trkpt lat="45.46252" lon="4.67968">
        <ele>669.22</ele>
        <time>2017-11-14T13:53:48Z</time>
      </trkpt>
      <trkpt lat="45.46266" lon="4.67958">
        <ele>667.29</ele>
        <time>2017-11-14T13:54:08Z</time>
      </trkpt>
      <trkpt lat="45.46282" lon="4.67951">
        <ele>663.45</ele>
        <time>2017-11-14T13:54:28Z</time>
      </trkpt>
      <trkpt lat="45.46299" lon="4.6794">
        <ele>661.52</ele>
        <time>2017-11-14T13:54:48Z</time>
      </trkpt>
      <trkpt lat="45.46321" lon="4.67931">
        <ele>659.6</ele>
        <time>2017-11-14T13:55:08Z</time>
      </trkpt>
      <trkpt lat="45.46333" lon="4.6792">
        <ele>657.2</ele>
        <time>2017-11-14T13:55:28Z</time>
      </trkpt>
      <trkpt lat="45.46347" lon="4.67907">
        <ele>654.31</ele>
        <time>2017-11-14T13:55:48Z</time>
      </trkpt>
      <trkpt lat="45.46366" lon="4.67894">
        <ele>652.87</ele>
        <time>2017-11-14T13:56:08Z</time>
      </trkpt>
      <trkpt lat="45.46395" lon="4.67872">
        <ele>653.83</ele>
        <time>2017-11-14T13:56:28Z</time>
      </trkpt>
      <trkpt lat="45.46419" lon="4.6785">
        <ele>653.83</ele>
        <time>2017-11-14T13:56:48Z</time>
      </trkpt>
      <trkpt lat="45.46442" lon="4.67829">
        <ele>652.39</ele>
        <time>2017-11-14T13:57:08Z</time>
      </trkpt>
      <trkpt lat="45.46448" lon="4.67855">
        <ele>651.43</ele>
        <time>2017-11-14T13:57:28Z</time>
      </trkpt>
      <trkpt lat="45.46455" lon="4.67876">
        <ele>651.91</ele>
        <time>2017-11-14T13:57:48Z</time>
      </trkpt>
      <trkpt lat="45.4647" lon="4.67897">
        <ele>653.83</ele>
        <time>2017-11-14T13:58:08Z</time>
      </trkpt>
      <trkpt lat="45.46484" lon="4.67908">
        <ele>656.24</ele>
        <time>2017-11-14T13:58:28Z</time>
      </trkpt>
      <trkpt lat="45.46495" lon="4.67896">
        <ele>657.68</ele>
        <time>2017-11-14T13:58:48Z</time>
      </trkpt>
      <trkpt lat="45.46503" lon="4.67879">
        <ele>659.12</ele>
        <time>2017-11-14T13:59:08Z</time>
      </trkpt>
      <trkpt lat="45.46515" lon="4.67863">
        <ele>660.08</ele>
        <time>2017-11-14T13:59:28Z</time>
      </trkpt>
      <trkpt lat="45.46529" lon="4.67845">
        <ele>662.01</ele>
        <time>2017-11-14T13:59:48Z</time>
      </trkpt>
      <trkpt lat="45.46547" lon="4.67827">
        <ele>663.93</ele>
        <time>2017-11-14T14:00:08Z</time>
      </trkpt>
      <trkpt lat="45.46564" lon="4.67809">
        <ele>662.97</ele>
        <time>2017-11-14T14:00:28Z</time>
      </trkpt>
      <trkpt lat="45.4658" lon="4.67789">
        <ele>663.93</ele>
        <time>2017-11-14T14:00:48Z</time>
      </trkpt>
      <trkpt lat="45.46598" lon="4.67771">
        <ele>665.37</ele>
        <time>2017-11-14T14:01:08Z</time>
      </trkpt>
      <trkpt lat="45.46613" lon="4.67758">
        <ele>665.37</ele>
        <time>2017-11-14T14:01:28Z</time>
      </trkpt>
      <trkpt lat="45.4663" lon="4.67746">
        <ele>665.85</ele>
        <time>2017-11-14T14:01:48Z</time>
      </trkpt>
      <trkpt lat="45.46652" lon="4.67736">
        <ele>667.77</ele>
        <time>2017-11-14T14:02:08Z</time>
      </trkpt>
      <trkpt lat="45.46668" lon="4.67735">
        <ele>671.14</ele>
        <time>2017-11-14T14:02:28Z</time>
      </trkpt>
      <trkpt lat="45.46683" lon="4.67739">
        <ele>673.06</ele>
        <time>2017-11-14T14:02:48Z</time>
      </trkpt>
      <trkpt lat="45.46696" lon="4.67741">
        <ele>675.94</ele>
        <time>2017-11-14T14:03:08Z</time>
      </trkpt>
      <trkpt lat="45.4671" lon="4.67742">
        <ele>676.91</ele>
        <time>2017-11-14T14:03:28Z</time>
      </trkpt>
      <trkpt lat="45.4673" lon="4.67745">
        <ele>678.35</ele>
        <time>2017-11-14T14:03:48Z</time>
      </trkpt>
      <trkpt lat="45.4675" lon="4.67748">
        <ele>679.79</ele>
        <time>2017-11-14T14:04:08Z</time>
      </trkpt>
      <trkpt lat="45.46768" lon="4.67751">
        <ele>681.23</ele>
        <time>2017-11-14T14:04:28Z</time>
      </trkpt>
      <trkpt lat="45.46782" lon="4.67754">
        <ele>684.12</ele>
        <time>2017-11-14T14:04:48Z</time>
      </trkpt>
      <trkpt lat="45.46796" lon="4.67757">
        <ele>686.04</ele>
        <time>2017-11-14T14:05:08Z</time>
      </trkpt>
      <trkpt lat="45.4681" lon="4.67758">
        <ele>689.4</ele>
        <time>2017-11-14T14:05:28Z</time>
      </trkpt>
      <trkpt lat="45.46826" lon="4.67759">
        <ele>691.81</ele>
        <time>2017-11-14T14:05:48Z</time>
      </trkpt>
      <trkpt lat="45.46844" lon="4.67755">
        <ele>692.77</ele>
        <time>2017-11-14T14:06:08Z</time>
      </trkpt>
      <trkpt lat="45.46859" lon="4.67759">
        <ele>694.21</ele>
        <time>2017-11-14T14:06:28Z</time>
      </trkpt>
      <trkpt lat="45.46875" lon="4.67762">
        <ele>696.61</ele>
        <time>2017-11-14T14:06:48Z</time>
      </trkpt>
      <trkpt lat="45.46891" lon="4.67768">
        <ele>699.02</ele>
        <time>2017-11-14T14:07:08Z</time>
      </trkpt>
      <trkpt lat="45.46903" lon="4.67778">
        <ele>701.42</ele>
        <time>2017-11-14T14:07:28Z</time>
      </trkpt>
      <trkpt lat="45.46922" lon="4.67787">
        <ele>702.86</ele>
        <time>2017-11-14T14:07:48Z</time>
      </trkpt>
      <trkpt lat="45.46938" lon="4.67798">
        <ele>703.82</ele>
        <time>2017-11-14T14:08:08Z</time>
      </trkpt>
      <trkpt lat="45.46955" lon="4.67803">
        <ele>704.3</ele>
        <time>2017-11-14T14:08:28Z</time>
      </trkpt>
      <trkpt lat="45.46967" lon="4.67817">
        <ele>704.78</ele>
        <time>2017-11-14T14:08:48Z</time>
      </trkpt>
      <trkpt lat="45.46959" lon="4.67822">
        <ele>705.75</ele>
        <time>2017-11-14T14:09:08Z</time>
      </trkpt>
      <trkpt lat="45.46961" lon="4.67825">
        <ele>705.75</ele>
        <time>2017-11-14T14:09:28Z</time>
      </trkpt>
      <trkpt lat="45.46959" lon="4.67827">
        <ele>705.75</ele>
        <time>2017-11-14T14:09:48Z</time>
      </trkpt>
      <trkpt lat="45.46969" lon="4.67813">
        <ele>704.3</ele>
        <time>2017-11-14T14:10:08Z</time>
      </trkpt>
      <trkpt lat="45.46967" lon="4.67809">
        <ele>705.75</ele>
        <time>2017-11-14T14:10:28Z</time>
      </trkpt>
      <trkpt lat="45.46965" lon="4.67808">
        <ele>705.75</ele>
        <time>2017-11-14T14:10:48Z</time>
      </trkpt>
      <trkpt lat="45.46966" lon="4.67809">
        <ele>704.78</ele>
        <time>2017-11-14T14:11:08Z</time>
      </trkpt>
      <trkpt lat="45.46968" lon="4.67807">
        <ele>704.78</ele>
        <time>2017-11-14T14:11:28Z</time>
      </trkpt>
      <trkpt lat="45.46971" lon="4.67807">
        <ele>703.82</ele>
        <time>2017-11-14T14:11:48Z</time>
      </trkpt>
      <trkpt lat="45.46975" lon="4.67809">
        <ele>703.82</ele>
        <time>2017-11-14T14:12:08Z</time>
      </trkpt>
      <trkpt lat="45.46976" lon="4.67808">
        <ele>703.82</ele>
        <time>2017-11-14T14:12:28Z</time>
      </trkpt>
      <trkpt lat="45.46989" lon="4.67794">
        <ele>700.46</ele>
        <time>2017-11-14T14:12:48Z</time>
      </trkpt>
      <trkpt lat="45.47001" lon="4.67815">
        <ele>698.53</ele>
        <time>2017-11-14T14:13:08Z</time>
      </trkpt>
      <trkpt lat="45.47008" lon="4.67844">
        <ele>697.57</ele>
        <time>2017-11-14T14:13:28Z</time>
      </trkpt>
      <trkpt lat="45.47016" lon="4.67875">
        <ele>695.17</ele>
        <time>2017-11-14T14:13:48Z</time>
      </trkpt>
      <trkpt lat="45.47021" lon="4.67901">
        <ele>694.21</ele>
        <time>2017-11-14T14:14:08Z</time>
      </trkpt>
      <trkpt lat="45.47026" lon="4.6793">
        <ele>693.73</ele>
        <time>2017-11-14T14:14:28Z</time>
      </trkpt>
      <trkpt lat="45.47034" lon="4.67957">
        <ele>692.77</ele>
        <time>2017-11-14T14:14:48Z</time>
      </trkpt>
      <trkpt lat="45.47043" lon="4.67986">
        <ele>691.81</ele>
        <time>2017-11-14T14:15:08Z</time>
      </trkpt>
      <trkpt lat="45.4705" lon="4.68011">
        <ele>690.36</ele>
        <time>2017-11-14T14:15:28Z</time>
      </trkpt>
      <trkpt lat="45.47059" lon="4.68042">
        <ele>688.92</ele>
        <time>2017-11-14T14:15:48Z</time>
      </trkpt>
      <trkpt lat="45.47065" lon="4.68073">
        <ele>686.52</ele>
        <time>2017-11-14T14:16:08Z</time>
      </trkpt>
      <trkpt lat="45.47075" lon="4.68096">
        <ele>684.6</ele>
        <time>2017-11-14T14:16:28Z</time>
      </trkpt>
      <trkpt lat="45.47084" lon="4.68124">
        <ele>682.67</ele>
        <time>2017-11-14T14:16:48Z</time>
      </trkpt>
      <trkpt lat="45.47093" lon="4.68154">
        <ele>680.75</ele>
        <time>2017-11-14T14:17:08Z</time>
      </trkpt>
      <trkpt lat="45.47105" lon="4.68177">
        <ele>678.35</ele>
        <time>2017-11-14T14:17:28Z</time>
      </trkpt>
      <trkpt lat="45.47115" lon="4.68204">
        <ele>677.39</ele>
        <time>2017-11-14T14:17:48Z</time>
      </trkpt>
      <trkpt lat="45.47125" lon="4.68228">
        <ele>675.94</ele>
        <time>2017-11-14T14:18:08Z</time>
      </trkpt>
      <trkpt lat="45.47132" lon="4.68249">
        <ele>674.5</ele>
        <time>2017-11-14T14:18:28Z</time>
      </trkpt>
      <trkpt lat="45.47137" lon="4.68275">
        <ele>672.58</ele>
        <time>2017-11-14T14:18:48Z</time>
      </trkpt>
      <trkpt lat="45.47146" lon="4.68295">
        <ele>670.66</ele>
        <time>2017-11-14T14:19:08Z</time>
      </trkpt>
      <trkpt lat="45.47155" lon="4.68316">
        <ele>667.77</ele>
        <time>2017-11-14T14:19:28Z</time>
      </trkpt>
      <trkpt lat="45.47167" lon="4.68294">
        <ele>665.85</ele>
        <time>2017-11-14T14:19:48Z</time>
      </trkpt>
      <trkpt lat="45.47175" lon="4.68269">
        <ele>664.41</ele>
        <time>2017-11-14T14:20:08Z</time>
      </trkpt>
      <trkpt lat="45.47184" lon="4.68242">
        <ele>661.52</ele>
        <time>2017-11-14T14:20:28Z</time>
      </trkpt>
      <trkpt lat="45.47184" lon="4.6821">
        <ele>660.08</ele>
        <time>2017-11-14T14:20:48Z</time>
      </trkpt>
      <trkpt lat="45.47191" lon="4.68183">
        <ele>656.72</ele>
        <time>2017-11-14T14:21:08Z</time>
      </trkpt>
      <trkpt lat="45.47194" lon="4.68153">
        <ele>652.87</ele>
        <time>2017-11-14T14:21:28Z</time>
      </trkpt>
      <trkpt lat="45.47195" lon="4.68126">
        <ele>649.03</ele>
        <time>2017-11-14T14:21:48Z</time>
      </trkpt>
      <trkpt lat="45.47198" lon="4.68096">
        <ele>647.1</ele>
        <time>2017-11-14T14:22:08Z</time>
      </trkpt>
      <trkpt lat="45.47213" lon="4.68073">
        <ele>645.18</ele>
        <time>2017-11-14T14:22:28Z</time>
      </trkpt>
      <trkpt lat="45.47231" lon="4.68048">
        <ele>644.22</ele>
        <time>2017-11-14T14:22:48Z</time>
      </trkpt>
      <trkpt lat="45.47244" lon="4.68028">
        <ele>642.78</ele>
        <time>2017-11-14T14:23:08Z</time>
      </trkpt>
      <trkpt lat="45.47259" lon="4.68004">
        <ele>640.38</ele>
        <time>2017-11-14T14:23:28Z</time>
      </trkpt>
      <trkpt lat="45.47273" lon="4.67978">
        <ele>637.97</ele>
        <time>2017-11-14T14:23:48Z</time>
      </trkpt>
      <trkpt lat="45.47288" lon="4.6796">
        <ele>635.09</ele>
        <time>2017-11-14T14:24:08Z</time>
      </trkpt>
      <trkpt lat="45.47308" lon="4.67939">
        <ele>631.72</ele>
        <time>2017-11-14T14:24:28Z</time>
      </trkpt>
      <trkpt lat="45.47321" lon="4.67911">
        <ele>628.36</ele>
        <time>2017-11-14T14:24:48Z</time>
      </trkpt>
      <trkpt lat="45.47332" lon="4.67883">
        <ele>625.47</ele>
        <time>2017-11-14T14:25:08Z</time>
      </trkpt>
      <trkpt lat="45.47329" lon="4.67854">
        <ele>624.51</ele>
        <time>2017-11-14T14:25:28Z</time>
      </trkpt>
      <trkpt lat="45.47315" lon="4.67822">
        <ele>624.03</ele>
        <time>2017-11-14T14:25:48Z</time>
      </trkpt>
      <trkpt lat="45.47301" lon="4.67791">
        <ele>623.07</ele>
        <time>2017-11-14T14:26:08Z</time>
      </trkpt>
      <trkpt lat="45.47284" lon="4.67768">
        <ele>623.55</ele>
        <time>2017-11-14T14:26:28Z</time>
      </trkpt>
      <trkpt lat="45.47267" lon="4.67741">
        <ele>623.07</ele>
        <time>2017-11-14T14:26:48Z</time>
      </trkpt>
      <trkpt lat="45.47258" lon="4.67712">
        <ele>625.96</ele>
        <time>2017-11-14T14:27:08Z</time>
      </trkpt>
      <trkpt lat="45.47259" lon="4.67681">
        <ele>626.92</ele>
        <time>2017-11-14T14:27:28Z</time>
      </trkpt>
      <trkpt lat="45.47267" lon="4.6765">
        <ele>627.4</ele>
        <time>2017-11-14T14:27:48Z</time>
      </trkpt>
      <trkpt lat="45.4728" lon="4.67629">
        <ele>629.32</ele>
        <time>2017-11-14T14:28:08Z</time>
      </trkpt>
      <trkpt lat="45.473" lon="4.67608">
        <ele>631.24</ele>
        <time>2017-11-14T14:28:28Z</time>
      </trkpt>
      <trkpt lat="45.4732" lon="4.67585">
        <ele>632.2</ele>
        <time>2017-11-14T14:28:48Z</time>
      </trkpt>
      <trkpt lat="45.47333" lon="4.67564">
        <ele>634.13</ele>
        <time>2017-11-14T14:29:08Z</time>
      </trkpt>
      <trkpt lat="45.47347" lon="4.67535">
        <ele>635.09</ele>
        <time>2017-11-14T14:29:28Z</time>
      </trkpt>
      <trkpt lat="45.47354" lon="4.6751">
        <ele>637.01</ele>
        <time>2017-11-14T14:29:48Z</time>
      </trkpt>
      <trkpt lat="45.47354" lon="4.67471">
        <ele>638.45</ele>
        <time>2017-11-14T14:30:08Z</time>
      </trkpt>
      <trkpt lat="45.47353" lon="4.67442">
        <ele>639.89</ele>
        <time>2017-11-14T14:30:28Z</time>
      </trkpt>
      <trkpt lat="45.4735" lon="4.67411">
        <ele>642.3</ele>
        <time>2017-11-14T14:30:48Z</time>
      </trkpt>
      <trkpt lat="45.47351" lon="4.67387">
        <ele>644.7</ele>
        <time>2017-11-14T14:31:08Z</time>
      </trkpt>
      <trkpt lat="45.4735" lon="4.67357">
        <ele>646.14</ele>
        <time>2017-11-14T14:31:28Z</time>
      </trkpt>
      <trkpt lat="45.47348" lon="4.6733">
        <ele>648.07</ele>
        <time>2017-11-14T14:31:48Z</time>
      </trkpt>
      <trkpt lat="45.47346" lon="4.67303">
        <ele>649.51</ele>
        <time>2017-11-14T14:32:08Z</time>
      </trkpt>
      <trkpt lat="45.47344" lon="4.67272">
        <ele>651.91</ele>
        <time>2017-11-14T14:32:28Z</time>
      </trkpt>
      <trkpt lat="45.4734" lon="4.67244">
        <ele>654.8</ele>
        <time>2017-11-14T14:32:48Z</time>
      </trkpt>
      <trkpt lat="45.47333" lon="4.6722">
        <ele>656.24</ele>
        <time>2017-11-14T14:33:08Z</time>
      </trkpt>
      <trkpt lat="45.47318" lon="4.67201">
        <ele>657.2</ele>
        <time>2017-11-14T14:33:28Z</time>
      </trkpt>
      <trkpt lat="45.47302" lon="4.67191">
        <ele>659.12</ele>
        <time>2017-11-14T14:33:48Z</time>
      </trkpt>
      <trkpt lat="45.47299" lon="4.67173">
        <ele>659.6</ele>
        <time>2017-11-14T14:34:08Z</time>
      </trkpt>
      <trkpt lat="45.47312" lon="4.67147">
        <ele>659.6</ele>
        <time>2017-11-14T14:34:28Z</time>
      </trkpt>
      <trkpt lat="45.47322" lon="4.67119">
        <ele>659.6</ele>
        <time>2017-11-14T14:34:48Z</time>
      </trkpt>
      <trkpt lat="45.47338" lon="4.67103">
        <ele>662.01</ele>
        <time>2017-11-14T14:35:08Z</time>
      </trkpt>
      <trkpt lat="45.47359" lon="4.67087">
        <ele>662.01</ele>
        <time>2017-11-14T14:35:28Z</time>
      </trkpt>
      <trkpt lat="45.47378" lon="4.67079">
        <ele>662.97</ele>
        <time>2017-11-14T14:35:48Z</time>
      </trkpt>
      <trkpt lat="45.47398" lon="4.67073">
        <ele>664.89</ele>
        <time>2017-11-14T14:36:08Z</time>
      </trkpt>
      <trkpt lat="45.47418" lon="4.67061">
        <ele>667.77</ele>
        <time>2017-11-14T14:36:28Z</time>
      </trkpt>
      <trkpt lat="45.47438" lon="4.67048">
        <ele>666.81</ele>
        <time>2017-11-14T14:36:48Z</time>
      </trkpt>
      <trkpt lat="45.47458" lon="4.67031">
        <ele>665.37</ele>
        <time>2017-11-14T14:37:08Z</time>
      </trkpt>
      <trkpt lat="45.47478" lon="4.67016">
        <ele>664.89</ele>
        <time>2017-11-14T14:37:28Z</time>
      </trkpt>
      <trkpt lat="45.47499" lon="4.66999">
        <ele>662.49</ele>
        <time>2017-11-14T14:37:48Z</time>
      </trkpt>
      <trkpt lat="45.47519" lon="4.66983">
        <ele>662.01</ele>
        <time>2017-11-14T14:38:08Z</time>
      </trkpt>
      <trkpt lat="45.4754" lon="4.66965">
        <ele>661.52</ele>
        <time>2017-11-14T14:38:28Z</time>
      </trkpt>
      <trkpt lat="45.47561" lon="4.6695">
        <ele>659.6</ele>
        <time>2017-11-14T14:38:48Z</time>
      </trkpt>
      <trkpt lat="45.47579" lon="4.6693">
        <ele>659.6</ele>
        <time>2017-11-14T14:39:08Z</time>
      </trkpt>
      <trkpt lat="45.476" lon="4.66913">
        <ele>654.8</ele>
        <time>2017-11-14T14:39:28Z</time>
      </trkpt>
      <trkpt lat="45.4762" lon="4.66896">
        <ele>653.83</ele>
        <time>2017-11-14T14:39:48Z</time>
      </trkpt>
      <trkpt lat="45.47636" lon="4.66875">
        <ele>651.91</ele>
        <time>2017-11-14T14:40:08Z</time>
      </trkpt>
      <trkpt lat="45.47653" lon="4.66851">
        <ele>648.55</ele>
        <time>2017-11-14T14:40:28Z</time>
      </trkpt>
      <trkpt lat="45.47669" lon="4.66825">
        <ele>646.62</ele>
        <time>2017-11-14T14:40:48Z</time>
      </trkpt>
      <trkpt lat="45.47686" lon="4.668">
        <ele>645.66</ele>
        <time>2017-11-14T14:41:08Z</time>
      </trkpt>
      <trkpt lat="45.47699" lon="4.6678">
        <ele>642.3</ele>
        <time>2017-11-14T14:41:28Z</time>
      </trkpt>
      <trkpt lat="45.47714" lon="4.66757">
        <ele>638.93</ele>
        <time>2017-11-14T14:41:48Z</time>
      </trkpt>
      <trkpt lat="45.47729" lon="4.66739">
        <ele>637.49</ele>
        <time>2017-11-14T14:42:08Z</time>
      </trkpt>
      <trkpt lat="45.47745" lon="4.66714">
        <ele>635.57</ele>
        <time>2017-11-14T14:42:28Z</time>
      </trkpt>
      <trkpt lat="45.47761" lon="4.66691">
        <ele>634.13</ele>
        <time>2017-11-14T14:42:48Z</time>
      </trkpt>
      <trkpt lat="45.47779" lon="4.66658">
        <ele>633.17</ele>
        <time>2017-11-14T14:43:08Z</time>
      </trkpt>
      <trkpt lat="45.47798" lon="4.66635">
        <ele>630.76</ele>
        <time>2017-11-14T14:43:28Z</time>
      </trkpt>
      <trkpt lat="45.47801" lon="4.6661">
        <ele>630.76</ele>
        <time>2017-11-14T14:43:48Z</time>
      </trkpt>
      <trkpt lat="45.47788" lon="4.66588">
        <ele>631.24</ele>
        <time>2017-11-14T14:44:08Z</time>
      </trkpt>
      <trkpt lat="45.47779" lon="4.66577">
        <ele>630.76</ele>
        <time>2017-11-14T14:44:28Z</time>
      </trkpt>
      <trkpt lat="45.47766" lon="4.66559">
        <ele>628.36</ele>
        <time>2017-11-14T14:44:48Z</time>
      </trkpt>
      <trkpt lat="45.47747" lon="4.66536">
        <ele>624.99</ele>
        <time>2017-11-14T14:45:08Z</time>
      </trkpt>
      <trkpt lat="45.47732" lon="4.66516">
        <ele>620.67</ele>
        <time>2017-11-14T14:45:28Z</time>
      </trkpt>
      <trkpt lat="45.47718" lon="4.66499">
        <ele>616.82</ele>
        <time>2017-11-14T14:45:48Z</time>
      </trkpt>
      <trkpt lat="45.47705" lon="4.66478">
        <ele>613.94</ele>
        <time>2017-11-14T14:46:08Z</time>
      </trkpt>
      <trkpt lat="45.47695" lon="4.66456">
        <ele>609.61</ele>
        <time>2017-11-14T14:46:28Z</time>
      </trkpt>
      <trkpt lat="45.47685" lon="4.66438">
        <ele>605.77</ele>
        <time>2017-11-14T14:46:48Z</time>
      </trkpt>
      <trkpt lat="45.47674" lon="4.66423">
        <ele>601.92</ele>
        <time>2017-11-14T14:47:08Z</time>
      </trkpt>
      <trkpt lat="45.47657" lon="4.66401">
        <ele>597.6</ele>
        <time>2017-11-14T14:47:28Z</time>
      </trkpt>
      <trkpt lat="45.47642" lon="4.6638">
        <ele>593.27</ele>
        <time>2017-11-14T14:47:48Z</time>
      </trkpt>
      <trkpt lat="45.47623" lon="4.66362">
        <ele>589.43</ele>
        <time>2017-11-14T14:48:08Z</time>
      </trkpt>
      <trkpt lat="45.47605" lon="4.66343">
        <ele>585.58</ele>
        <time>2017-11-14T14:48:28Z</time>
      </trkpt>
      <trkpt lat="45.47587" lon="4.66325">
        <ele>581.25</ele>
        <time>2017-11-14T14:48:48Z</time>
      </trkpt>
      <trkpt lat="45.47579" lon="4.66316">
        <ele>579.81</ele>
        <time>2017-11-14T14:49:08Z</time>
      </trkpt>
      <trkpt lat="45.47576" lon="4.66316">
        <ele>579.33</ele>
        <time>2017-11-14T14:49:28Z</time>
      </trkpt>
      <trkpt lat="45.47562" lon="4.66305">
        <ele>575.97</ele>
        <time>2017-11-14T14:49:48Z</time>
      </trkpt>
      <trkpt lat="45.47545" lon="4.66288">
        <ele>569.72</ele>
        <time>2017-11-14T14:50:08Z</time>
      </trkpt>
      <trkpt lat="45.47534" lon="4.66265">
        <ele>566.35</ele>
        <time>2017-11-14T14:50:28Z</time>
      </trkpt>
      <trkpt lat="45.47525" lon="4.66237">
        <ele>563.95</ele>
        <time>2017-11-14T14:50:48Z</time>
      </trkpt>
      <trkpt lat="45.47515" lon="4.66208">
        <ele>561.55</ele>
        <time>2017-11-14T14:51:08Z</time>
      </trkpt>
      <trkpt lat="45.47505" lon="4.66178">
        <ele>557.7</ele>
        <time>2017-11-14T14:51:28Z</time>
      </trkpt>
      <trkpt lat="45.47492" lon="4.66152">
        <ele>553.38</ele>
        <time>2017-11-14T14:51:48Z</time>
      </trkpt>
      <trkpt lat="45.47481" lon="4.66123">
        <ele>551.93</ele>
        <time>2017-11-14T14:52:08Z</time>
      </trkpt>
      <trkpt lat="45.4747" lon="4.66092">
        <ele>549.05</ele>
        <time>2017-11-14T14:52:28Z</time>
      </trkpt>
      <trkpt lat="45.47459" lon="4.66064">
        <ele>545.2</ele>
        <time>2017-11-14T14:52:48Z</time>
      </trkpt>
      <trkpt lat="45.47454" lon="4.66036">
        <ele>541.84</ele>
        <time>2017-11-14T14:53:08Z</time>
      </trkpt>
      <trkpt lat="45.47453" lon="4.66">
        <ele>537.51</ele>
        <time>2017-11-14T14:53:28Z</time>
      </trkpt>
      <trkpt lat="45.47456" lon="4.65967">
        <ele>535.59</ele>
        <time>2017-11-14T14:53:48Z</time>
      </trkpt>
      <trkpt lat="45.47462" lon="4.65933">
        <ele>532.71</ele>
        <time>2017-11-14T14:54:08Z</time>
      </trkpt>
      <trkpt lat="45.47474" lon="4.65904">
        <ele>530.79</ele>
        <time>2017-11-14T14:54:28Z</time>
      </trkpt>
      <trkpt lat="45.47483" lon="4.65893">
        <ele>527.9</ele>
        <time>2017-11-14T14:54:48Z</time>
      </trkpt>
      <trkpt lat="45.47503" lon="4.65879">
        <ele>526.46</ele>
        <time>2017-11-14T14:55:08Z</time>
      </trkpt>
      <trkpt lat="45.47527" lon="4.65871">
        <ele>524.06</ele>
        <time>2017-11-14T14:55:28Z</time>
      </trkpt>
      <trkpt lat="45.47551" lon="4.65873">
        <ele>521.65</ele>
        <time>2017-11-14T14:55:48Z</time>
      </trkpt>
      <trkpt lat="45.47574" lon="4.65867">
        <ele>518.77</ele>
        <time>2017-11-14T14:56:08Z</time>
      </trkpt>
      <trkpt lat="45.47591" lon="4.65873">
        <ele>516.85</ele>
        <time>2017-11-14T14:56:28Z</time>
      </trkpt>
      <trkpt lat="45.47615" lon="4.65878">
        <ele>514.44</ele>
        <time>2017-11-14T14:56:48Z</time>
      </trkpt>
      <trkpt lat="45.47641" lon="4.6588">
        <ele>511.56</ele>
        <time>2017-11-14T14:57:08Z</time>
      </trkpt>
      <trkpt lat="45.47657" lon="4.65859">
        <ele>513.48</ele>
        <time>2017-11-14T14:57:28Z</time>
      </trkpt>
      <trkpt lat="45.47668" lon="4.65835">
        <ele>515.4</ele>
        <time>2017-11-14T14:57:48Z</time>
      </trkpt>
      <trkpt lat="45.47676" lon="4.65804">
        <ele>516.37</ele>
        <time>2017-11-14T14:58:08Z</time>
      </trkpt>
      <trkpt lat="45.47679" lon="4.65768">
        <ele>515.88</ele>
        <time>2017-11-14T14:58:28Z</time>
      </trkpt>
      <trkpt lat="45.47683" lon="4.65734">
        <ele>515.88</ele>
        <time>2017-11-14T14:58:48Z</time>
      </trkpt>
      <trkpt lat="45.47692" lon="4.65704">
        <ele>517.33</ele>
        <time>2017-11-14T14:59:08Z</time>
      </trkpt>
      <trkpt lat="45.47702" lon="4.65677">
        <ele>518.77</ele>
        <time>2017-11-14T14:59:28Z</time>
      </trkpt>
      <trkpt lat="45.47715" lon="4.65652">
        <ele>520.21</ele>
        <time>2017-11-14T14:59:48Z</time>
      </trkpt>
      <trkpt lat="45.47731" lon="4.65625">
        <ele>521.65</ele>
        <time>2017-11-14T15:00:08Z</time>
      </trkpt>
      <trkpt lat="45.47745" lon="4.65597">
        <ele>522.13</ele>
        <time>2017-11-14T15:00:28Z</time>
      </trkpt>
      <trkpt lat="45.47758" lon="4.6557">
        <ele>523.09</ele>
        <time>2017-11-14T15:00:48Z</time>
      </trkpt>
      <trkpt lat="45.47772" lon="4.65541">
        <ele>524.06</ele>
        <time>2017-11-14T15:01:08Z</time>
      </trkpt>
      <trkpt lat="45.47786" lon="4.65513">
        <ele>524.06</ele>
        <time>2017-11-14T15:01:28Z</time>
      </trkpt>
      <trkpt lat="45.47802" lon="4.65487">
        <ele>523.58</ele>
        <time>2017-11-14T15:01:48Z</time>
      </trkpt>
      <trkpt lat="45.47812" lon="4.65461">
        <ele>521.17</ele>
        <time>2017-11-14T15:02:08Z</time>
      </trkpt>
      <trkpt lat="45.4782" lon="4.65428">
        <ele>517.33</ele>
        <time>2017-11-14T15:02:28Z</time>
      </trkpt>
      <trkpt lat="45.47825" lon="4.65393">
        <ele>512.52</ele>
        <time>2017-11-14T15:02:48Z</time>
      </trkpt>
      <trkpt lat="45.4783" lon="4.65358">
        <ele>508.67</ele>
        <time>2017-11-14T15:03:08Z</time>
      </trkpt>
      <trkpt lat="45.47832" lon="4.65329">
        <ele>505.31</ele>
        <time>2017-11-14T15:03:28Z</time>
      </trkpt>
      <trkpt lat="45.47833" lon="4.65298">
        <ele>501.95</ele>
        <time>2017-11-14T15:03:48Z</time>
      </trkpt>
      <trkpt lat="45.47836" lon="4.65268">
        <ele>497.62</ele>
        <time>2017-11-14T15:04:08Z</time>
      </trkpt>
      <trkpt lat="45.47838" lon="4.65238">
        <ele>493.77</ele>
        <time>2017-11-14T15:04:28Z</time>
      </trkpt>
      <trkpt lat="45.47839" lon="4.652">
        <ele>490.89</ele>
        <time>2017-11-14T15:04:48Z</time>
      </trkpt>
      <trkpt lat="45.47841" lon="4.65165">
        <ele>487.05</ele>
        <time>2017-11-14T15:05:08Z</time>
      </trkpt>
      <trkpt lat="45.47844" lon="4.65129">
        <ele>482.72</ele>
        <time>2017-11-14T15:05:28Z</time>
      </trkpt>
      <trkpt lat="45.47845" lon="4.65093">
        <ele>478.87</ele>
        <time>2017-11-14T15:05:48Z</time>
      </trkpt>
      <trkpt lat="45.47838" lon="4.65065">
        <ele>475.51</ele>
        <time>2017-11-14T15:06:08Z</time>
      </trkpt>
      <trkpt lat="45.47833" lon="4.65032">
        <ele>471.18</ele>
        <time>2017-11-14T15:06:28Z</time>
      </trkpt>
      <trkpt lat="45.4783" lon="4.64998">
        <ele>466.86</ele>
        <time>2017-11-14T15:06:48Z</time>
      </trkpt>
      <trkpt lat="45.47827" lon="4.64968">
        <ele>462.05</ele>
        <time>2017-11-14T15:07:08Z</time>
      </trkpt>
      <trkpt lat="45.47829" lon="4.6494">
        <ele>458.69</ele>
        <time>2017-11-14T15:07:28Z</time>
      </trkpt>
      <trkpt lat="45.47849" lon="4.64923">
        <ele>455.32</ele>
        <time>2017-11-14T15:07:48Z</time>
      </trkpt>
      <trkpt lat="45.4787" lon="4.64906">
        <ele>453.88</ele>
        <time>2017-11-14T15:08:08Z</time>
      </trkpt>
      <trkpt lat="45.47885" lon="4.64881">
        <ele>451.48</ele>
        <time>2017-11-14T15:08:28Z</time>
      </trkpt>
      <trkpt lat="45.4789" lon="4.64873">
        <ele>451</ele>
        <time>2017-11-14T15:08:48Z</time>
      </trkpt>
      <trkpt lat="45.47887" lon="4.64877">
        <ele>451.48</ele>
        <time>2017-11-14T15:09:08Z</time>
      </trkpt>
      <trkpt lat="45.47882" lon="4.64879">
        <ele>451.48</ele>
        <time>2017-11-14T15:09:28Z</time>
      </trkpt>
      <trkpt lat="45.47881" lon="4.64879">
        <ele>451.96</ele>
        <time>2017-11-14T15:09:48Z</time>
      </trkpt>
      <trkpt lat="45.47878" lon="4.64889">
        <ele>452.92</ele>
        <time>2017-11-14T15:10:08Z</time>
      </trkpt>
      <trkpt lat="45.47877" lon="4.64891">
        <ele>452.44</ele>
        <time>2017-11-14T15:10:28Z</time>
      </trkpt>
      <trkpt lat="45.47875" lon="4.64893">
        <ele>452.44</ele>
        <time>2017-11-14T15:10:48Z</time>
      </trkpt>
      <trkpt lat="45.47885" lon="4.64877">
        <ele>451.48</ele>
        <time>2017-11-14T15:11:08Z</time>
      </trkpt>
      <trkpt lat="45.47899" lon="4.64847">
        <ele>448.11</ele>
        <time>2017-11-14T15:11:28Z</time>
      </trkpt>
      <trkpt lat="45.4791" lon="4.64823">
        <ele>444.27</ele>
        <time>2017-11-14T15:11:48Z</time>
      </trkpt>
      <trkpt lat="45.47928" lon="4.64846">
        <ele>437.54</ele>
        <time>2017-11-14T15:12:08Z</time>
      </trkpt>
      <trkpt lat="45.47938" lon="4.6485">
        <ele>432.25</ele>
        <time>2017-11-14T15:12:28Z</time>
      </trkpt>
      <trkpt lat="45.47935" lon="4.64812">
        <ele>428.4</ele>
        <time>2017-11-14T15:12:48Z</time>
      </trkpt>
      <trkpt lat="45.47935" lon="4.64781">
        <ele>425.04</ele>
        <time>2017-11-14T15:13:08Z</time>
      </trkpt>
      <trkpt lat="45.47932" lon="4.64744">
        <ele>422.64</ele>
        <time>2017-11-14T15:13:28Z</time>
      </trkpt>
      <trkpt lat="45.47904" lon="4.64712">
        <ele>420.71</ele>
        <time>2017-11-14T15:13:48Z</time>
      </trkpt>
      <trkpt lat="45.47882" lon="4.64697">
        <ele>420.71</ele>
        <time>2017-11-14T15:14:08Z</time>
      </trkpt>
      <trkpt lat="45.47859" lon="4.64681">
        <ele>421.68</ele>
        <time>2017-11-14T15:14:28Z</time>
      </trkpt>
      <trkpt lat="45.47851" lon="4.64662">
        <ele>424.08</ele>
        <time>2017-11-14T15:14:48Z</time>
      </trkpt>
      <trkpt lat="45.47847" lon="4.64638">
        <ele>427.92</ele>
        <time>2017-11-14T15:15:08Z</time>
      </trkpt>
      <trkpt lat="45.47845" lon="4.64635">
        <ele>428.4</ele>
        <time>2017-11-14T15:15:28Z</time>
      </trkpt>
      <trkpt lat="45.47845" lon="4.64635">
        <ele>428.4</ele>
        <time>2017-11-14T15:15:48Z</time>
      </trkpt>
    </trkseg>
  </trk>
</gpx>